<?xml version="1.0" encoding="UTF-8"?>
<gpx version="1.0" creator="Trackator" xmlns:xsi="http://www.w3.org/2001/XMLSchema-instance" xmlns="http://www.topografix.com/GPX/1/0" xmlns:topografix="http://www.topografix.com/GPX/Private/TopoGrafix/0/1" xsi:schemaLocation="http://www.topografix.com/GPX/1/0 http://www.topografix.com/GPX/1/0/gpx.xsd http://www.topografix.com/GPX/Private/TopoGrafix/0/1 http://www.topografix.com/GPX/Private/TopoGrafix/0/1/topografix.xsd">
<metadata>
<link href="http://www.trackator.com">
<text>Trackator</text>
</link>
</metadata>
<time>2016-01-17T15:15:05Z</time>
<trk>
<name>Track: </name>
<desc>Hiking</desc>
<trkseg>
<trkpt lat="53.3348145" lon="18.4157705">
<ele>99</ele>
<time>2016-01-17T15:15:05Z</time>
</trkpt>
<trkpt lat="53.3347745" lon="18.4158202">
<ele>93</ele>
<time>2016-01-17T15:15:07Z</time>
</trkpt>
<trkpt lat="53.3347745" lon="18.4158202">
<ele>93</ele>
<time>2016-01-17T15:15:09Z</time>
</trkpt>
<trkpt lat="53.3347745" lon="18.4158202">
<ele>93</ele>
<time>2016-01-17T15:15:11Z</time>
</trkpt>
<trkpt lat="53.3347745" lon="18.4158202">
<ele>93</ele>
<time>2016-01-17T15:15:13Z</time>
</trkpt>
<trkpt lat="53.3347745" lon="18.4158202">
<ele>93</ele>
<time>2016-01-17T15:15:15Z</time>
</trkpt>
<trkpt lat="53.3347745" lon="18.4158202">
<ele>93</ele>
<time>2016-01-17T15:15:17Z</time>
</trkpt>
<trkpt lat="53.3347745" lon="18.4158202">
<ele>93</ele>
<time>2016-01-17T15:15:19Z</time>
</trkpt>
<trkpt lat="53.3347745" lon="18.4158202">
<ele>93</ele>
<time>2016-01-17T15:15:21Z</time>
</trkpt>
<trkpt lat="53.3347745" lon="18.4158202">
<ele>93</ele>
<time>2016-01-17T15:15:23Z</time>
</trkpt>
<trkpt lat="53.3347745" lon="18.4158202">
<ele>93</ele>
<time>2016-01-17T15:15:25Z</time>
</trkpt>
<trkpt lat="53.3347745" lon="18.4158202">
<ele>93</ele>
<time>2016-01-17T15:15:27Z</time>
</trkpt>
<trkpt lat="53.3347745" lon="18.4158202">
<ele>93</ele>
<time>2016-01-17T15:15:29Z</time>
</trkpt>
<trkpt lat="53.3347745" lon="18.4158202">
<ele>93</ele>
<time>2016-01-17T15:15:31Z</time>
</trkpt>
<trkpt lat="53.3347745" lon="18.4158202">
<ele>93</ele>
<time>2016-01-17T15:15:33Z</time>
</trkpt>
<trkpt lat="53.3347745" lon="18.4158202">
<ele>93</ele>
<time>2016-01-17T15:15:35Z</time>
</trkpt>
<trkpt lat="53.3347745" lon="18.4158202">
<ele>93</ele>
<time>2016-01-17T15:15:37Z</time>
</trkpt>
<trkpt lat="53.3347745" lon="18.4158202">
<ele>93</ele>
<time>2016-01-17T15:15:39Z</time>
</trkpt>
<trkpt lat="53.3347745" lon="18.4158202">
<ele>93</ele>
<time>2016-01-17T15:15:41Z</time>
</trkpt>
<trkpt lat="53.3347745" lon="18.4158202">
<ele>93</ele>
<time>2016-01-17T15:15:43Z</time>
</trkpt>
<trkpt lat="53.3347745" lon="18.4158202">
<ele>93</ele>
<time>2016-01-17T15:15:45Z</time>
</trkpt>
<trkpt lat="53.3347745" lon="18.4158202">
<ele>93</ele>
<time>2016-01-17T15:15:47Z</time>
</trkpt>
<trkpt lat="53.3347745" lon="18.4158202">
<ele>93</ele>
<time>2016-01-17T15:15:49Z</time>
</trkpt>
<trkpt lat="53.3347745" lon="18.4158202">
<ele>93</ele>
<time>2016-01-17T15:15:51Z</time>
</trkpt>
<trkpt lat="53.3347745" lon="18.4158202">
<ele>93</ele>
<time>2016-01-17T15:15:53Z</time>
</trkpt>
<trkpt lat="53.3347745" lon="18.4158202">
<ele>93</ele>
<time>2016-01-17T15:15:55Z</time>
</trkpt>
<trkpt lat="53.3347745" lon="18.4158202">
<ele>93</ele>
<time>2016-01-17T15:15:57Z</time>
</trkpt>
<trkpt lat="53.3347745" lon="18.4158202">
<ele>93</ele>
<time>2016-01-17T15:16:01Z</time>
</trkpt>
<trkpt lat="53.3347745" lon="18.4158202">
<ele>93</ele>
<time>2016-01-17T15:16:03Z</time>
</trkpt>
<trkpt lat="53.3347745" lon="18.4158202">
<ele>93</ele>
<time>2016-01-17T15:16:05Z</time>
</trkpt>
<trkpt lat="53.3347745" lon="18.4158202">
<ele>93</ele>
<time>2016-01-17T15:16:07Z</time>
</trkpt>
<trkpt lat="53.3347745" lon="18.4158202">
<ele>93</ele>
<time>2016-01-17T15:16:09Z</time>
</trkpt>
<trkpt lat="53.3347721" lon="18.4158100">
<ele>93</ele>
<time>2016-01-17T15:16:11Z</time>
</trkpt>
<trkpt lat="53.3347722" lon="18.4157929">
<ele>93</ele>
<time>2016-01-17T15:16:13Z</time>
</trkpt>
<trkpt lat="53.3347732" lon="18.4157907">
<ele>93</ele>
<time>2016-01-17T15:16:15Z</time>
</trkpt>
<trkpt lat="53.3347732" lon="18.4157907">
<ele>93</ele>
<time>2016-01-17T15:16:17Z</time>
</trkpt>
<trkpt lat="53.3347732" lon="18.4157907">
<ele>93</ele>
<time>2016-01-17T15:16:19Z</time>
</trkpt>
<trkpt lat="53.3347732" lon="18.4157907">
<ele>93</ele>
<time>2016-01-17T15:16:21Z</time>
</trkpt>
<trkpt lat="53.3347732" lon="18.4157907">
<ele>93</ele>
<time>2016-01-17T15:16:23Z</time>
</trkpt>
<trkpt lat="53.3347732" lon="18.4157907">
<ele>93</ele>
<time>2016-01-17T15:16:25Z</time>
</trkpt>
<trkpt lat="53.3347732" lon="18.4157907">
<ele>93</ele>
<time>2016-01-17T15:16:27Z</time>
</trkpt>
<trkpt lat="53.3347732" lon="18.4157907">
<ele>93</ele>
<time>2016-01-17T15:16:29Z</time>
</trkpt>
<trkpt lat="53.3347732" lon="18.4157907">
<ele>93</ele>
<time>2016-01-17T15:16:31Z</time>
</trkpt>
<trkpt lat="53.3347732" lon="18.4157907">
<ele>93</ele>
<time>2016-01-17T15:16:33Z</time>
</trkpt>
<trkpt lat="53.3347732" lon="18.4157907">
<ele>93</ele>
<time>2016-01-17T15:16:35Z</time>
</trkpt>
<trkpt lat="53.3347732" lon="18.4157907">
<ele>93</ele>
<time>2016-01-17T15:16:37Z</time>
</trkpt>
<trkpt lat="53.3347732" lon="18.4157907">
<ele>93</ele>
<time>2016-01-17T15:16:39Z</time>
</trkpt>
<trkpt lat="53.3347732" lon="18.4157907">
<ele>93</ele>
<time>2016-01-17T15:16:41Z</time>
</trkpt>
<trkpt lat="53.3347732" lon="18.4157907">
<ele>93</ele>
<time>2016-01-17T15:16:43Z</time>
</trkpt>
<trkpt lat="53.3347732" lon="18.4157907">
<ele>93</ele>
<time>2016-01-17T15:16:45Z</time>
</trkpt>
<trkpt lat="53.3347732" lon="18.4157907">
<ele>93</ele>
<time>2016-01-17T15:16:47Z</time>
</trkpt>
<trkpt lat="53.3347732" lon="18.4157907">
<ele>93</ele>
<time>2016-01-17T15:16:49Z</time>
</trkpt>
<trkpt lat="53.3347732" lon="18.4157907">
<ele>93</ele>
<time>2016-01-17T15:16:51Z</time>
</trkpt>
<trkpt lat="53.3347732" lon="18.4157907">
<ele>93</ele>
<time>2016-01-17T15:16:53Z</time>
</trkpt>
<trkpt lat="53.3347732" lon="18.4157907">
<ele>93</ele>
<time>2016-01-17T15:16:55Z</time>
</trkpt>
<trkpt lat="53.3347732" lon="18.4157907">
<ele>93</ele>
<time>2016-01-17T15:16:57Z</time>
</trkpt>
<trkpt lat="53.3347732" lon="18.4157907">
<ele>93</ele>
<time>2016-01-17T15:16:59Z</time>
</trkpt>
<trkpt lat="53.3347732" lon="18.4157907">
<ele>93</ele>
<time>2016-01-17T15:17:01Z</time>
</trkpt>
<trkpt lat="53.3347732" lon="18.4157907">
<ele>93</ele>
<time>2016-01-17T15:17:03Z</time>
</trkpt>
<trkpt lat="53.3347732" lon="18.4157907">
<ele>93</ele>
<time>2016-01-17T15:17:05Z</time>
</trkpt>
<trkpt lat="53.3347732" lon="18.4157907">
<ele>93</ele>
<time>2016-01-17T15:17:07Z</time>
</trkpt>
<trkpt lat="53.3347732" lon="18.4157907">
<ele>93</ele>
<time>2016-01-17T15:17:09Z</time>
</trkpt>
<trkpt lat="53.3347732" lon="18.4157907">
<ele>93</ele>
<time>2016-01-17T15:17:11Z</time>
</trkpt>
<trkpt lat="53.3347732" lon="18.4157907">
<ele>93</ele>
<time>2016-01-17T15:17:13Z</time>
</trkpt>
<trkpt lat="53.3347732" lon="18.4157907">
<ele>93</ele>
<time>2016-01-17T15:17:15Z</time>
</trkpt>
<trkpt lat="53.3347732" lon="18.4157907">
<ele>93</ele>
<time>2016-01-17T15:17:17Z</time>
</trkpt>
<trkpt lat="53.3347732" lon="18.4157907">
<ele>93</ele>
<time>2016-01-17T15:17:19Z</time>
</trkpt>
<trkpt lat="53.3347732" lon="18.4157907">
<ele>93</ele>
<time>2016-01-17T15:17:21Z</time>
</trkpt>
<trkpt lat="53.3347732" lon="18.4157907">
<ele>93</ele>
<time>2016-01-17T15:17:23Z</time>
</trkpt>
<trkpt lat="53.3347732" lon="18.4157907">
<ele>93</ele>
<time>2016-01-17T15:17:25Z</time>
</trkpt>
<trkpt lat="53.3347732" lon="18.4157907">
<ele>93</ele>
<time>2016-01-17T15:17:27Z</time>
</trkpt>
<trkpt lat="53.3347732" lon="18.4157907">
<ele>93</ele>
<time>2016-01-17T15:17:29Z</time>
</trkpt>
<trkpt lat="53.3347732" lon="18.4157907">
<ele>93</ele>
<time>2016-01-17T15:17:31Z</time>
</trkpt>
<trkpt lat="53.3347732" lon="18.4157907">
<ele>93</ele>
<time>2016-01-17T15:17:33Z</time>
</trkpt>
<trkpt lat="53.3347732" lon="18.4157907">
<ele>93</ele>
<time>2016-01-17T15:17:35Z</time>
</trkpt>
<trkpt lat="53.3347732" lon="18.4157907">
<ele>93</ele>
<time>2016-01-17T15:17:37Z</time>
</trkpt>
<trkpt lat="53.3347732" lon="18.4157907">
<ele>93</ele>
<time>2016-01-17T15:17:39Z</time>
</trkpt>
<trkpt lat="53.3347732" lon="18.4157907">
<ele>93</ele>
<time>2016-01-17T15:17:41Z</time>
</trkpt>
<trkpt lat="53.3347732" lon="18.4157907">
<ele>93</ele>
<time>2016-01-17T15:17:43Z</time>
</trkpt>
<trkpt lat="53.3347732" lon="18.4157907">
<ele>93</ele>
<time>2016-01-17T15:17:47Z</time>
</trkpt>
<trkpt lat="53.3347732" lon="18.4157907">
<ele>93</ele>
<time>2016-01-17T15:17:49Z</time>
</trkpt>
<trkpt lat="53.3347732" lon="18.4157907">
<ele>93</ele>
<time>2016-01-17T15:17:51Z</time>
</trkpt>
<trkpt lat="53.3347732" lon="18.4157907">
<ele>93</ele>
<time>2016-01-17T15:17:53Z</time>
</trkpt>
<trkpt lat="53.3347732" lon="18.4157907">
<ele>93</ele>
<time>2016-01-17T15:17:55Z</time>
</trkpt>
<trkpt lat="53.3347732" lon="18.4157907">
<ele>93</ele>
<time>2016-01-17T15:17:57Z</time>
</trkpt>
<trkpt lat="53.3347732" lon="18.4157907">
<ele>93</ele>
<time>2016-01-17T15:17:59Z</time>
</trkpt>
<trkpt lat="53.3347732" lon="18.4157907">
<ele>93</ele>
<time>2016-01-17T15:18:01Z</time>
</trkpt>
<trkpt lat="53.3347732" lon="18.4157907">
<ele>93</ele>
<time>2016-01-17T15:18:03Z</time>
</trkpt>
<trkpt lat="53.3347732" lon="18.4157907">
<ele>93</ele>
<time>2016-01-17T15:18:05Z</time>
</trkpt>
<trkpt lat="53.3347732" lon="18.4157907">
<ele>93</ele>
<time>2016-01-17T15:18:07Z</time>
</trkpt>
<trkpt lat="53.3347732" lon="18.4157907">
<ele>93</ele>
<time>2016-01-17T15:18:09Z</time>
</trkpt>
<trkpt lat="53.3347732" lon="18.4157907">
<ele>93</ele>
<time>2016-01-17T15:18:11Z</time>
</trkpt>
<trkpt lat="53.3347613" lon="18.4157859">
<ele>93</ele>
<time>2016-01-17T15:18:13Z</time>
</trkpt>
<trkpt lat="53.3347621" lon="18.4157844">
<ele>93</ele>
<time>2016-01-17T15:18:15Z</time>
</trkpt>
<trkpt lat="53.3347624" lon="18.4157664">
<ele>94</ele>
<time>2016-01-17T15:18:17Z</time>
</trkpt>
<trkpt lat="53.3347684" lon="18.4157402">
<ele>95</ele>
<time>2016-01-17T15:18:19Z</time>
</trkpt>
<trkpt lat="53.3347751" lon="18.4157356">
<ele>96</ele>
<time>2016-01-17T15:18:21Z</time>
</trkpt>
<trkpt lat="53.3347751" lon="18.4157356">
<ele>96</ele>
<time>2016-01-17T15:18:23Z</time>
</trkpt>
<trkpt lat="53.3347751" lon="18.4157356">
<ele>96</ele>
<time>2016-01-17T15:18:25Z</time>
</trkpt>
<trkpt lat="53.3347751" lon="18.4157356">
<ele>96</ele>
<time>2016-01-17T15:18:27Z</time>
</trkpt>
<trkpt lat="53.3347751" lon="18.4157356">
<ele>96</ele>
<time>2016-01-17T15:18:29Z</time>
</trkpt>
<trkpt lat="53.3347770" lon="18.4157323">
<ele>96</ele>
<time>2016-01-17T15:18:31Z</time>
</trkpt>
<trkpt lat="53.3347767" lon="18.4157246">
<ele>96</ele>
<time>2016-01-17T15:18:33Z</time>
</trkpt>
<trkpt lat="53.3347767" lon="18.4157246">
<ele>96</ele>
<time>2016-01-17T15:18:37Z</time>
</trkpt>
<trkpt lat="53.3347767" lon="18.4157246">
<ele>96</ele>
<time>2016-01-17T15:18:35Z</time>
</trkpt>
<trkpt lat="53.3347767" lon="18.4157246">
<ele>96</ele>
<time>2016-01-17T15:18:39Z</time>
</trkpt>
<trkpt lat="53.3347767" lon="18.4157246">
<ele>96</ele>
<time>2016-01-17T15:18:41Z</time>
</trkpt>
<trkpt lat="53.3347767" lon="18.4157246">
<ele>96</ele>
<time>2016-01-17T15:18:43Z</time>
</trkpt>
<trkpt lat="53.3347767" lon="18.4157246">
<ele>96</ele>
<time>2016-01-17T15:18:45Z</time>
</trkpt>
<trkpt lat="53.3347767" lon="18.4157246">
<ele>96</ele>
<time>2016-01-17T15:18:47Z</time>
</trkpt>
<trkpt lat="53.3347767" lon="18.4157246">
<ele>96</ele>
<time>2016-01-17T15:18:49Z</time>
</trkpt>
<trkpt lat="53.3347767" lon="18.4157246">
<ele>96</ele>
<time>2016-01-17T15:18:51Z</time>
</trkpt>
<trkpt lat="53.3347767" lon="18.4157246">
<ele>96</ele>
<time>2016-01-17T15:18:53Z</time>
</trkpt>
<trkpt lat="53.3347767" lon="18.4157246">
<ele>96</ele>
<time>2016-01-17T15:18:55Z</time>
</trkpt>
<trkpt lat="53.3347767" lon="18.4157246">
<ele>96</ele>
<time>2016-01-17T15:18:57Z</time>
</trkpt>
<trkpt lat="53.3347767" lon="18.4157246">
<ele>96</ele>
<time>2016-01-17T15:18:59Z</time>
</trkpt>
<trkpt lat="53.3347767" lon="18.4157246">
<ele>96</ele>
<time>2016-01-17T15:19:01Z</time>
</trkpt>
<trkpt lat="53.3347767" lon="18.4157246">
<ele>96</ele>
<time>2016-01-17T15:19:03Z</time>
</trkpt>
<trkpt lat="53.3347767" lon="18.4157246">
<ele>96</ele>
<time>2016-01-17T15:19:05Z</time>
</trkpt>
<trkpt lat="53.3347767" lon="18.4157246">
<ele>96</ele>
<time>2016-01-17T15:19:07Z</time>
</trkpt>
<trkpt lat="53.3347767" lon="18.4157246">
<ele>96</ele>
<time>2016-01-17T15:19:09Z</time>
</trkpt>
<trkpt lat="53.3347767" lon="18.4157246">
<ele>96</ele>
<time>2016-01-17T15:19:11Z</time>
</trkpt>
<trkpt lat="53.3347767" lon="18.4157246">
<ele>96</ele>
<time>2016-01-17T15:19:13Z</time>
</trkpt>
<trkpt lat="53.3347767" lon="18.4157246">
<ele>96</ele>
<time>2016-01-17T15:19:15Z</time>
</trkpt>
<trkpt lat="53.3347767" lon="18.4157246">
<ele>96</ele>
<time>2016-01-17T15:19:17Z</time>
</trkpt>
<trkpt lat="53.3347767" lon="18.4157246">
<ele>96</ele>
<time>2016-01-17T15:19:19Z</time>
</trkpt>
<trkpt lat="53.3347767" lon="18.4157246">
<ele>96</ele>
<time>2016-01-17T15:19:21Z</time>
</trkpt>
<trkpt lat="53.3347767" lon="18.4157246">
<ele>96</ele>
<time>2016-01-17T15:19:23Z</time>
</trkpt>
<trkpt lat="53.3347767" lon="18.4157246">
<ele>96</ele>
<time>2016-01-17T15:19:25Z</time>
</trkpt>
<trkpt lat="53.3347767" lon="18.4157246">
<ele>96</ele>
<time>2016-01-17T15:19:27Z</time>
</trkpt>
<trkpt lat="53.3347767" lon="18.4157246">
<ele>96</ele>
<time>2016-01-17T15:19:29Z</time>
</trkpt>
<trkpt lat="53.3347670" lon="18.4157524">
<ele>96</ele>
<time>2016-01-17T15:19:31Z</time>
</trkpt>
<trkpt lat="53.3347710" lon="18.4157732">
<ele>96</ele>
<time>2016-01-17T15:19:33Z</time>
</trkpt>
<trkpt lat="53.3347737" lon="18.4158907">
<ele>96</ele>
<time>2016-01-17T15:19:35Z</time>
</trkpt>
<trkpt lat="53.3347678" lon="18.4158820">
<ele>96</ele>
<time>2016-01-17T15:19:37Z</time>
</trkpt>
<trkpt lat="53.3347757" lon="18.4158832">
<ele>96</ele>
<time>2016-01-17T15:19:39Z</time>
</trkpt>
<trkpt lat="53.3347900" lon="18.4158831">
<ele>96</ele>
<time>2016-01-17T15:19:41Z</time>
</trkpt>
<trkpt lat="53.3348095" lon="18.4158906">
<ele>96</ele>
<time>2016-01-17T15:19:43Z</time>
</trkpt>
<trkpt lat="53.3348092" lon="18.4158933">
<ele>96</ele>
<time>2016-01-17T15:19:45Z</time>
</trkpt>
<trkpt lat="53.3348032" lon="18.4159089">
<ele>97</ele>
<time>2016-01-17T15:19:47Z</time>
</trkpt>
<trkpt lat="53.3348032" lon="18.4159089">
<ele>97</ele>
<time>2016-01-17T15:19:49Z</time>
</trkpt>
<trkpt lat="53.3348032" lon="18.4159089">
<ele>97</ele>
<time>2016-01-17T15:19:51Z</time>
</trkpt>
<trkpt lat="53.3348032" lon="18.4159089">
<ele>97</ele>
<time>2016-01-17T15:19:53Z</time>
</trkpt>
<trkpt lat="53.3348032" lon="18.4159089">
<ele>97</ele>
<time>2016-01-17T15:19:55Z</time>
</trkpt>
<trkpt lat="53.3348032" lon="18.4159089">
<ele>97</ele>
<time>2016-01-17T15:19:57Z</time>
</trkpt>
<trkpt lat="53.3348032" lon="18.4159089">
<ele>97</ele>
<time>2016-01-17T15:19:59Z</time>
</trkpt>
<trkpt lat="53.3348032" lon="18.4159089">
<ele>97</ele>
<time>2016-01-17T15:20:01Z</time>
</trkpt>
<trkpt lat="53.3348032" lon="18.4159089">
<ele>97</ele>
<time>2016-01-17T15:20:03Z</time>
</trkpt>
<trkpt lat="53.3348032" lon="18.4159089">
<ele>97</ele>
<time>2016-01-17T15:20:05Z</time>
</trkpt>
<trkpt lat="53.3347996" lon="18.4159100">
<ele>97</ele>
<time>2016-01-17T15:20:07Z</time>
</trkpt>
<trkpt lat="53.3347893" lon="18.4159133">
<ele>97</ele>
<time>2016-01-17T15:20:09Z</time>
</trkpt>
<trkpt lat="53.3347987" lon="18.4158737">
<ele>97</ele>
<time>2016-01-17T15:20:11Z</time>
</trkpt>
<trkpt lat="53.3348330" lon="18.4158173">
<ele>97</ele>
<time>2016-01-17T15:20:13Z</time>
</trkpt>
<trkpt lat="53.3348605" lon="18.4157739">
<ele>99</ele>
<time>2016-01-17T15:20:15Z</time>
</trkpt>
<trkpt lat="53.3348538" lon="18.4157579">
<ele>99</ele>
<time>2016-01-17T15:20:17Z</time>
</trkpt>
<trkpt lat="53.3348433" lon="18.4157380">
<ele>99</ele>
<time>2016-01-17T15:20:19Z</time>
</trkpt>
<trkpt lat="53.3347978" lon="18.4156531">
<ele>101</ele>
<time>2016-01-17T15:20:21Z</time>
</trkpt>
<trkpt lat="53.3347408" lon="18.4155740">
<ele>102</ele>
<time>2016-01-17T15:20:23Z</time>
</trkpt>
<trkpt lat="53.3346923" lon="18.4154792">
<ele>103</ele>
<time>2016-01-17T15:20:25Z</time>
</trkpt>
<trkpt lat="53.3346717" lon="18.4154070">
<ele>104</ele>
<time>2016-01-17T15:20:27Z</time>
</trkpt>
<trkpt lat="53.3346460" lon="18.4153179">
<ele>97</ele>
<time>2016-01-17T15:20:29Z</time>
</trkpt>
<trkpt lat="53.3346251" lon="18.4152270">
<ele>93</ele>
<time>2016-01-17T15:20:31Z</time>
</trkpt>
<trkpt lat="53.3346262" lon="18.4150748">
<ele>92</ele>
<time>2016-01-17T15:20:33Z</time>
</trkpt>
<trkpt lat="53.3346380" lon="18.4150461">
<ele>92</ele>
<time>2016-01-17T15:20:35Z</time>
</trkpt>
<trkpt lat="53.3346335" lon="18.4150908">
<ele>94</ele>
<time>2016-01-17T15:20:37Z</time>
</trkpt>
<trkpt lat="53.3346335" lon="18.4150908">
<ele>94</ele>
<time>2016-01-17T15:20:39Z</time>
</trkpt>
<trkpt lat="53.3346335" lon="18.4150908">
<ele>94</ele>
<time>2016-01-17T15:20:41Z</time>
</trkpt>
<trkpt lat="53.3346335" lon="18.4150908">
<ele>94</ele>
<time>2016-01-17T15:20:43Z</time>
</trkpt>
<trkpt lat="53.3346335" lon="18.4150908">
<ele>94</ele>
<time>2016-01-17T15:20:45Z</time>
</trkpt>
<trkpt lat="53.3346335" lon="18.4150908">
<ele>94</ele>
<time>2016-01-17T15:20:47Z</time>
</trkpt>
<trkpt lat="53.3346335" lon="18.4150908">
<ele>94</ele>
<time>2016-01-17T15:20:49Z</time>
</trkpt>
<trkpt lat="53.3346335" lon="18.4150908">
<ele>94</ele>
<time>2016-01-17T15:20:51Z</time>
</trkpt>
<trkpt lat="53.3346335" lon="18.4150908">
<ele>94</ele>
<time>2016-01-17T15:20:53Z</time>
</trkpt>
<trkpt lat="53.3346335" lon="18.4150908">
<ele>94</ele>
<time>2016-01-17T15:20:55Z</time>
</trkpt>
<trkpt lat="53.3346335" lon="18.4150908">
<ele>94</ele>
<time>2016-01-17T15:20:57Z</time>
</trkpt>
<trkpt lat="53.3346335" lon="18.4150908">
<ele>94</ele>
<time>2016-01-17T15:20:59Z</time>
</trkpt>
<trkpt lat="53.3346335" lon="18.4150908">
<ele>94</ele>
<time>2016-01-17T15:21:01Z</time>
</trkpt>
<trkpt lat="53.3346335" lon="18.4150908">
<ele>94</ele>
<time>2016-01-17T15:21:03Z</time>
</trkpt>
<trkpt lat="53.3346335" lon="18.4150908">
<ele>94</ele>
<time>2016-01-17T15:21:05Z</time>
</trkpt>
<trkpt lat="53.3346335" lon="18.4150908">
<ele>94</ele>
<time>2016-01-17T15:21:07Z</time>
</trkpt>
<trkpt lat="53.3346335" lon="18.4150908">
<ele>94</ele>
<time>2016-01-17T15:21:09Z</time>
</trkpt>
<trkpt lat="53.3346335" lon="18.4150908">
<ele>94</ele>
<time>2016-01-17T15:21:13Z</time>
</trkpt>
<trkpt lat="53.3346335" lon="18.4150908">
<ele>94</ele>
<time>2016-01-17T15:21:15Z</time>
</trkpt>
<trkpt lat="53.3346335" lon="18.4150908">
<ele>94</ele>
<time>2016-01-17T15:21:17Z</time>
</trkpt>
<trkpt lat="53.3346335" lon="18.4150908">
<ele>94</ele>
<time>2016-01-17T15:21:19Z</time>
</trkpt>
<trkpt lat="53.3346335" lon="18.4150908">
<ele>94</ele>
<time>2016-01-17T15:21:21Z</time>
</trkpt>
<trkpt lat="53.3346335" lon="18.4150908">
<ele>94</ele>
<time>2016-01-17T15:21:23Z</time>
</trkpt>
<trkpt lat="53.3346335" lon="18.4150908">
<ele>94</ele>
<time>2016-01-17T15:21:25Z</time>
</trkpt>
<trkpt lat="53.3346335" lon="18.4150908">
<ele>94</ele>
<time>2016-01-17T15:21:27Z</time>
</trkpt>
<trkpt lat="53.3346335" lon="18.4150908">
<ele>94</ele>
<time>2016-01-17T15:21:29Z</time>
</trkpt>
<trkpt lat="53.3346335" lon="18.4150908">
<ele>94</ele>
<time>2016-01-17T15:21:31Z</time>
</trkpt>
<trkpt lat="53.3346335" lon="18.4150908">
<ele>94</ele>
<time>2016-01-17T15:21:33Z</time>
</trkpt>
<trkpt lat="53.3346335" lon="18.4150908">
<ele>94</ele>
<time>2016-01-17T15:21:35Z</time>
</trkpt>
<trkpt lat="53.3346335" lon="18.4150908">
<ele>94</ele>
<time>2016-01-17T15:21:37Z</time>
</trkpt>
<trkpt lat="53.3346335" lon="18.4150908">
<ele>94</ele>
<time>2016-01-17T15:21:39Z</time>
</trkpt>
<trkpt lat="53.3346335" lon="18.4150908">
<ele>94</ele>
<time>2016-01-17T15:21:41Z</time>
</trkpt>
<trkpt lat="53.3346335" lon="18.4150908">
<ele>94</ele>
<time>2016-01-17T15:21:43Z</time>
</trkpt>
<trkpt lat="53.3346335" lon="18.4150908">
<ele>94</ele>
<time>2016-01-17T15:21:45Z</time>
</trkpt>
<trkpt lat="53.3346335" lon="18.4150908">
<ele>94</ele>
<time>2016-01-17T15:21:47Z</time>
</trkpt>
<trkpt lat="53.3346335" lon="18.4150908">
<ele>94</ele>
<time>2016-01-17T15:21:49Z</time>
</trkpt>
<trkpt lat="53.3346335" lon="18.4150908">
<ele>94</ele>
<time>2016-01-17T15:21:51Z</time>
</trkpt>
<trkpt lat="53.3346335" lon="18.4150908">
<ele>94</ele>
<time>2016-01-17T15:21:53Z</time>
</trkpt>
<trkpt lat="53.3346335" lon="18.4150908">
<ele>94</ele>
<time>2016-01-17T15:21:55Z</time>
</trkpt>
<trkpt lat="53.3346335" lon="18.4150908">
<ele>94</ele>
<time>2016-01-17T15:21:57Z</time>
</trkpt>
<trkpt lat="53.3346335" lon="18.4150908">
<ele>94</ele>
<time>2016-01-17T15:21:59Z</time>
</trkpt>
<trkpt lat="53.3346335" lon="18.4150908">
<ele>94</ele>
<time>2016-01-17T15:22:01Z</time>
</trkpt>
<trkpt lat="53.3346335" lon="18.4150908">
<ele>94</ele>
<time>2016-01-17T15:22:05Z</time>
</trkpt>
<trkpt lat="53.3346320" lon="18.4151019">
<ele>94</ele>
<time>2016-01-17T15:22:07Z</time>
</trkpt>
<trkpt lat="53.3346200" lon="18.4151218">
<ele>94</ele>
<time>2016-01-17T15:22:09Z</time>
</trkpt>
<trkpt lat="53.3346029" lon="18.4151368">
<ele>94</ele>
<time>2016-01-17T15:22:11Z</time>
</trkpt>
<trkpt lat="53.3345920" lon="18.4151554">
<ele>94</ele>
<time>2016-01-17T15:22:13Z</time>
</trkpt>
<trkpt lat="53.3345871" lon="18.4151690">
<ele>94</ele>
<time>2016-01-17T15:22:15Z</time>
</trkpt>
<trkpt lat="53.3345777" lon="18.4151801">
<ele>94</ele>
<time>2016-01-17T15:22:17Z</time>
</trkpt>
<trkpt lat="53.3345582" lon="18.4152255">
<ele>94</ele>
<time>2016-01-17T15:22:21Z</time>
</trkpt>
<trkpt lat="53.3345661" lon="18.4151980">
<ele>94</ele>
<time>2016-01-17T15:22:19Z</time>
</trkpt>
<trkpt lat="53.3345581" lon="18.4152421">
<ele>94</ele>
<time>2016-01-17T15:22:23Z</time>
</trkpt>
<trkpt lat="53.3345536" lon="18.4152598">
<ele>94</ele>
<time>2016-01-17T15:22:25Z</time>
</trkpt>
<trkpt lat="53.3345372" lon="18.4152909">
<ele>93</ele>
<time>2016-01-17T15:22:27Z</time>
</trkpt>
<trkpt lat="53.3345296" lon="18.4153207">
<ele>94</ele>
<time>2016-01-17T15:22:29Z</time>
</trkpt>
<trkpt lat="53.3345233" lon="18.4153451">
<ele>94</ele>
<time>2016-01-17T15:22:31Z</time>
</trkpt>
<trkpt lat="53.3345233" lon="18.4153451">
<ele>94</ele>
<time>2016-01-17T15:22:33Z</time>
</trkpt>
<trkpt lat="53.3345221" lon="18.4153538">
<ele>94</ele>
<time>2016-01-17T15:22:35Z</time>
</trkpt>
<trkpt lat="53.3345172" lon="18.4153860">
<ele>94</ele>
<time>2016-01-17T15:22:37Z</time>
</trkpt>
<trkpt lat="53.3345139" lon="18.4154562">
<ele>95</ele>
<time>2016-01-17T15:22:39Z</time>
</trkpt>
<trkpt lat="53.3345162" lon="18.4155538">
<ele>101</ele>
<time>2016-01-17T15:22:41Z</time>
</trkpt>
<trkpt lat="53.3345015" lon="18.4155905">
<ele>104</ele>
<time>2016-01-17T15:22:43Z</time>
</trkpt>
<trkpt lat="53.3344891" lon="18.4156154">
<ele>105</ele>
<time>2016-01-17T15:22:45Z</time>
</trkpt>
<trkpt lat="53.3344891" lon="18.4156154">
<ele>105</ele>
<time>2016-01-17T15:22:47Z</time>
</trkpt>
<trkpt lat="53.3344891" lon="18.4156154">
<ele>105</ele>
<time>2016-01-17T15:22:49Z</time>
</trkpt>
<trkpt lat="53.3344891" lon="18.4156154">
<ele>105</ele>
<time>2016-01-17T15:22:51Z</time>
</trkpt>
<trkpt lat="53.3344777" lon="18.4156331">
<ele>104</ele>
<time>2016-01-17T15:22:53Z</time>
</trkpt>
<trkpt lat="53.3344657" lon="18.4156505">
<ele>105</ele>
<time>2016-01-17T15:22:55Z</time>
</trkpt>
<trkpt lat="53.3344469" lon="18.4156632">
<ele>105</ele>
<time>2016-01-17T15:22:57Z</time>
</trkpt>
<trkpt lat="53.3344300" lon="18.4156639">
<ele>105</ele>
<time>2016-01-17T15:22:59Z</time>
</trkpt>
<trkpt lat="53.3344118" lon="18.4156552">
<ele>106</ele>
<time>2016-01-17T15:23:01Z</time>
</trkpt>
<trkpt lat="53.3343918" lon="18.4156597">
<ele>106</ele>
<time>2016-01-17T15:23:05Z</time>
</trkpt>
<trkpt lat="53.3343831" lon="18.4156698">
<ele>107</ele>
<time>2016-01-17T15:23:07Z</time>
</trkpt>
<trkpt lat="53.3343750" lon="18.4156784">
<ele>106</ele>
<time>2016-01-17T15:23:09Z</time>
</trkpt>
<trkpt lat="53.3343645" lon="18.4156829">
<ele>106</ele>
<time>2016-01-17T15:23:11Z</time>
</trkpt>
<trkpt lat="53.3343544" lon="18.4156909">
<ele>106</ele>
<time>2016-01-17T15:23:13Z</time>
</trkpt>
<trkpt lat="53.3343395" lon="18.4156893">
<ele>107</ele>
<time>2016-01-17T15:23:15Z</time>
</trkpt>
<trkpt lat="53.3343200" lon="18.4156825">
<ele>107</ele>
<time>2016-01-17T15:23:17Z</time>
</trkpt>
<trkpt lat="53.3343006" lon="18.4156817">
<ele>107</ele>
<time>2016-01-17T15:23:19Z</time>
</trkpt>
<trkpt lat="53.3342751" lon="18.4156860">
<ele>107</ele>
<time>2016-01-17T15:23:21Z</time>
</trkpt>
<trkpt lat="53.3342659" lon="18.4156930">
<ele>107</ele>
<time>2016-01-17T15:23:23Z</time>
</trkpt>
<trkpt lat="53.3342565" lon="18.4157181">
<ele>107</ele>
<time>2016-01-17T15:23:25Z</time>
</trkpt>
<trkpt lat="53.3342518" lon="18.4157244">
<ele>107</ele>
<time>2016-01-17T15:23:27Z</time>
</trkpt>
<trkpt lat="53.3342417" lon="18.4157296">
<ele>107</ele>
<time>2016-01-17T15:23:29Z</time>
</trkpt>
<trkpt lat="53.3342297" lon="18.4157305">
<ele>107</ele>
<time>2016-01-17T15:23:31Z</time>
</trkpt>
<trkpt lat="53.3342204" lon="18.4157226">
<ele>107</ele>
<time>2016-01-17T15:23:33Z</time>
</trkpt>
<trkpt lat="53.3342092" lon="18.4157192">
<ele>107</ele>
<time>2016-01-17T15:23:35Z</time>
</trkpt>
<trkpt lat="53.3341928" lon="18.4157174">
<ele>107</ele>
<time>2016-01-17T15:23:37Z</time>
</trkpt>
<trkpt lat="53.3341751" lon="18.4157285">
<ele>108</ele>
<time>2016-01-17T15:23:39Z</time>
</trkpt>
<trkpt lat="53.3341618" lon="18.4157358">
<ele>108</ele>
<time>2016-01-17T15:23:41Z</time>
</trkpt>
<trkpt lat="53.3341452" lon="18.4157456">
<ele>108</ele>
<time>2016-01-17T15:23:43Z</time>
</trkpt>
<trkpt lat="53.3341269" lon="18.4157449">
<ele>108</ele>
<time>2016-01-17T15:23:45Z</time>
</trkpt>
<trkpt lat="53.3341064" lon="18.4157518">
<ele>108</ele>
<time>2016-01-17T15:23:47Z</time>
</trkpt>
<trkpt lat="53.3340931" lon="18.4157496">
<ele>108</ele>
<time>2016-01-17T15:23:49Z</time>
</trkpt>
<trkpt lat="53.3340744" lon="18.4157505">
<ele>108</ele>
<time>2016-01-17T15:23:51Z</time>
</trkpt>
<trkpt lat="53.3340613" lon="18.4157502">
<ele>108</ele>
<time>2016-01-17T15:23:53Z</time>
</trkpt>
<trkpt lat="53.3340476" lon="18.4157411">
<ele>109</ele>
<time>2016-01-17T15:23:55Z</time>
</trkpt>
<trkpt lat="53.3340337" lon="18.4157348">
<ele>108</ele>
<time>2016-01-17T15:23:57Z</time>
</trkpt>
<trkpt lat="53.3340192" lon="18.4157328">
<ele>108</ele>
<time>2016-01-17T15:23:59Z</time>
</trkpt>
<trkpt lat="53.3340151" lon="18.4157435">
<ele>109</ele>
<time>2016-01-17T15:24:01Z</time>
</trkpt>
<trkpt lat="53.3340085" lon="18.4157430">
<ele>108</ele>
<time>2016-01-17T15:24:03Z</time>
</trkpt>
<trkpt lat="53.3339950" lon="18.4157504">
<ele>108</ele>
<time>2016-01-17T15:24:05Z</time>
</trkpt>
<trkpt lat="53.3339815" lon="18.4157569">
<ele>108</ele>
<time>2016-01-17T15:24:07Z</time>
</trkpt>
<trkpt lat="53.3339762" lon="18.4157618">
<ele>108</ele>
<time>2016-01-17T15:24:09Z</time>
</trkpt>
<trkpt lat="53.3339690" lon="18.4157599">
<ele>109</ele>
<time>2016-01-17T15:24:11Z</time>
</trkpt>
<trkpt lat="53.3339544" lon="18.4157602">
<ele>109</ele>
<time>2016-01-17T15:24:13Z</time>
</trkpt>
<trkpt lat="53.3339385" lon="18.4157659">
<ele>109</ele>
<time>2016-01-17T15:24:15Z</time>
</trkpt>
<trkpt lat="53.3339276" lon="18.4157778">
<ele>109</ele>
<time>2016-01-17T15:24:17Z</time>
</trkpt>
<trkpt lat="53.3339199" lon="18.4157849">
<ele>109</ele>
<time>2016-01-17T15:24:19Z</time>
</trkpt>
<trkpt lat="53.3339081" lon="18.4157943">
<ele>110</ele>
<time>2016-01-17T15:24:21Z</time>
</trkpt>
<trkpt lat="53.3338891" lon="18.4157984">
<ele>109</ele>
<time>2016-01-17T15:24:23Z</time>
</trkpt>
<trkpt lat="53.3338733" lon="18.4158040">
<ele>110</ele>
<time>2016-01-17T15:24:25Z</time>
</trkpt>
<trkpt lat="53.3338625" lon="18.4157946">
<ele>110</ele>
<time>2016-01-17T15:24:27Z</time>
</trkpt>
<trkpt lat="53.3338545" lon="18.4157901">
<ele>110</ele>
<time>2016-01-17T15:24:29Z</time>
</trkpt>
<trkpt lat="53.3338395" lon="18.4157979">
<ele>110</ele>
<time>2016-01-17T15:24:31Z</time>
</trkpt>
<trkpt lat="53.3338375" lon="18.4157787">
<ele>110</ele>
<time>2016-01-17T15:24:33Z</time>
</trkpt>
<trkpt lat="53.3338210" lon="18.4157806">
<ele>111</ele>
<time>2016-01-17T15:24:35Z</time>
</trkpt>
<trkpt lat="53.3338027" lon="18.4157817">
<ele>112</ele>
<time>2016-01-17T15:24:37Z</time>
</trkpt>
<trkpt lat="53.3337880" lon="18.4157717">
<ele>112</ele>
<time>2016-01-17T15:24:39Z</time>
</trkpt>
<trkpt lat="53.3337570" lon="18.4157551">
<ele>112</ele>
<time>2016-01-17T15:24:43Z</time>
</trkpt>
<trkpt lat="53.3337512" lon="18.4157553">
<ele>112</ele>
<time>2016-01-17T15:24:45Z</time>
</trkpt>
<trkpt lat="53.3337480" lon="18.4157465">
<ele>113</ele>
<time>2016-01-17T15:24:47Z</time>
</trkpt>
<trkpt lat="53.3337427" lon="18.4157374">
<ele>112</ele>
<time>2016-01-17T15:24:49Z</time>
</trkpt>
<trkpt lat="53.3337332" lon="18.4157198">
<ele>113</ele>
<time>2016-01-17T15:24:51Z</time>
</trkpt>
<trkpt lat="53.3337233" lon="18.4157030">
<ele>113</ele>
<time>2016-01-17T15:24:53Z</time>
</trkpt>
<trkpt lat="53.3337209" lon="18.4156994">
<ele>113</ele>
<time>2016-01-17T15:24:55Z</time>
</trkpt>
<trkpt lat="53.3337167" lon="18.4157010">
<ele>113</ele>
<time>2016-01-17T15:24:57Z</time>
</trkpt>
<trkpt lat="53.3337010" lon="18.4157006">
<ele>112</ele>
<time>2016-01-17T15:24:59Z</time>
</trkpt>
<trkpt lat="53.3336888" lon="18.4157015">
<ele>112</ele>
<time>2016-01-17T15:25:01Z</time>
</trkpt>
<trkpt lat="53.3336765" lon="18.4156983">
<ele>112</ele>
<time>2016-01-17T15:25:03Z</time>
</trkpt>
<trkpt lat="53.3336556" lon="18.4156991">
<ele>111</ele>
<time>2016-01-17T15:25:05Z</time>
</trkpt>
<trkpt lat="53.3336405" lon="18.4157180">
<ele>111</ele>
<time>2016-01-17T15:25:07Z</time>
</trkpt>
<trkpt lat="53.3336270" lon="18.4157031">
<ele>111</ele>
<time>2016-01-17T15:25:09Z</time>
</trkpt>
<trkpt lat="53.3336086" lon="18.4156794">
<ele>111</ele>
<time>2016-01-17T15:25:11Z</time>
</trkpt>
<trkpt lat="53.3335993" lon="18.4156719">
<ele>112</ele>
<time>2016-01-17T15:25:13Z</time>
</trkpt>
<trkpt lat="53.3335887" lon="18.4156692">
<ele>112</ele>
<time>2016-01-17T15:25:15Z</time>
</trkpt>
<trkpt lat="53.3335870" lon="18.4156670">
<ele>112</ele>
<time>2016-01-17T15:25:17Z</time>
</trkpt>
<trkpt lat="53.3335833" lon="18.4156709">
<ele>111</ele>
<time>2016-01-17T15:25:19Z</time>
</trkpt>
<trkpt lat="53.3335786" lon="18.4156807">
<ele>111</ele>
<time>2016-01-17T15:25:21Z</time>
</trkpt>
<trkpt lat="53.3335789" lon="18.4156896">
<ele>111</ele>
<time>2016-01-17T15:25:23Z</time>
</trkpt>
<trkpt lat="53.3335789" lon="18.4156896">
<ele>111</ele>
<time>2016-01-17T15:25:25Z</time>
</trkpt>
<trkpt lat="53.3335789" lon="18.4156896">
<ele>111</ele>
<time>2016-01-17T15:25:27Z</time>
</trkpt>
<trkpt lat="53.3335663" lon="18.4156872">
<ele>111</ele>
<time>2016-01-17T15:25:29Z</time>
</trkpt>
<trkpt lat="53.3335624" lon="18.4156752">
<ele>110</ele>
<time>2016-01-17T15:25:31Z</time>
</trkpt>
<trkpt lat="53.3335624" lon="18.4156752">
<ele>110</ele>
<time>2016-01-17T15:25:33Z</time>
</trkpt>
<trkpt lat="53.3335624" lon="18.4156752">
<ele>110</ele>
<time>2016-01-17T15:25:35Z</time>
</trkpt>
<trkpt lat="53.3335624" lon="18.4156752">
<ele>110</ele>
<time>2016-01-17T15:25:37Z</time>
</trkpt>
<trkpt lat="53.3335572" lon="18.4156761">
<ele>111</ele>
<time>2016-01-17T15:25:39Z</time>
</trkpt>
<trkpt lat="53.3335520" lon="18.4156683">
<ele>112</ele>
<time>2016-01-17T15:25:41Z</time>
</trkpt>
<trkpt lat="53.3335520" lon="18.4156683">
<ele>112</ele>
<time>2016-01-17T15:25:43Z</time>
</trkpt>
<trkpt lat="53.3335520" lon="18.4156683">
<ele>112</ele>
<time>2016-01-17T15:25:45Z</time>
</trkpt>
<trkpt lat="53.3335520" lon="18.4156683">
<ele>112</ele>
<time>2016-01-17T15:25:47Z</time>
</trkpt>
<trkpt lat="53.3335520" lon="18.4156683">
<ele>112</ele>
<time>2016-01-17T15:25:49Z</time>
</trkpt>
<trkpt lat="53.3335520" lon="18.4156683">
<ele>112</ele>
<time>2016-01-17T15:25:51Z</time>
</trkpt>
<trkpt lat="53.3335520" lon="18.4156683">
<ele>112</ele>
<time>2016-01-17T15:25:53Z</time>
</trkpt>
<trkpt lat="53.3335520" lon="18.4156683">
<ele>112</ele>
<time>2016-01-17T15:25:55Z</time>
</trkpt>
<trkpt lat="53.3335520" lon="18.4156683">
<ele>112</ele>
<time>2016-01-17T15:25:57Z</time>
</trkpt>
<trkpt lat="53.3335520" lon="18.4156683">
<ele>112</ele>
<time>2016-01-17T15:25:59Z</time>
</trkpt>
<trkpt lat="53.3335520" lon="18.4156683">
<ele>112</ele>
<time>2016-01-17T15:26:01Z</time>
</trkpt>
<trkpt lat="53.3335520" lon="18.4156683">
<ele>112</ele>
<time>2016-01-17T15:26:03Z</time>
</trkpt>
<trkpt lat="53.3335520" lon="18.4156683">
<ele>112</ele>
<time>2016-01-17T15:26:05Z</time>
</trkpt>
<trkpt lat="53.3335520" lon="18.4156683">
<ele>112</ele>
<time>2016-01-17T15:26:07Z</time>
</trkpt>
<trkpt lat="53.3335520" lon="18.4156683">
<ele>112</ele>
<time>2016-01-17T15:26:09Z</time>
</trkpt>
<trkpt lat="53.3335520" lon="18.4156683">
<ele>112</ele>
<time>2016-01-17T15:26:11Z</time>
</trkpt>
<trkpt lat="53.3335520" lon="18.4156683">
<ele>112</ele>
<time>2016-01-17T15:26:13Z</time>
</trkpt>
<trkpt lat="53.3335520" lon="18.4156683">
<ele>112</ele>
<time>2016-01-17T15:26:15Z</time>
</trkpt>
<trkpt lat="53.3335520" lon="18.4156683">
<ele>112</ele>
<time>2016-01-17T15:26:17Z</time>
</trkpt>
<trkpt lat="53.3335520" lon="18.4156683">
<ele>112</ele>
<time>2016-01-17T15:26:19Z</time>
</trkpt>
<trkpt lat="53.3335520" lon="18.4156683">
<ele>112</ele>
<time>2016-01-17T15:26:21Z</time>
</trkpt>
<trkpt lat="53.3335520" lon="18.4156683">
<ele>112</ele>
<time>2016-01-17T15:26:23Z</time>
</trkpt>
<trkpt lat="53.3335520" lon="18.4156683">
<ele>112</ele>
<time>2016-01-17T15:26:25Z</time>
</trkpt>
<trkpt lat="53.3335520" lon="18.4156683">
<ele>112</ele>
<time>2016-01-17T15:26:27Z</time>
</trkpt>
<trkpt lat="53.3335520" lon="18.4156683">
<ele>112</ele>
<time>2016-01-17T15:26:29Z</time>
</trkpt>
<trkpt lat="53.3335520" lon="18.4156683">
<ele>112</ele>
<time>2016-01-17T15:26:31Z</time>
</trkpt>
<trkpt lat="53.3335520" lon="18.4156683">
<ele>112</ele>
<time>2016-01-17T15:26:33Z</time>
</trkpt>
<trkpt lat="53.3335520" lon="18.4156683">
<ele>112</ele>
<time>2016-01-17T15:26:35Z</time>
</trkpt>
<trkpt lat="53.3335520" lon="18.4156683">
<ele>112</ele>
<time>2016-01-17T15:26:37Z</time>
</trkpt>
<trkpt lat="53.3335520" lon="18.4156683">
<ele>112</ele>
<time>2016-01-17T15:26:39Z</time>
</trkpt>
<trkpt lat="53.3335520" lon="18.4156683">
<ele>112</ele>
<time>2016-01-17T15:26:41Z</time>
</trkpt>
<trkpt lat="53.3335520" lon="18.4156683">
<ele>112</ele>
<time>2016-01-17T15:26:43Z</time>
</trkpt>
<trkpt lat="53.3335520" lon="18.4156683">
<ele>112</ele>
<time>2016-01-17T15:26:45Z</time>
</trkpt>
<trkpt lat="53.3335520" lon="18.4156683">
<ele>112</ele>
<time>2016-01-17T15:26:47Z</time>
</trkpt>
<trkpt lat="53.3335520" lon="18.4156683">
<ele>112</ele>
<time>2016-01-17T15:26:49Z</time>
</trkpt>
<trkpt lat="53.3335520" lon="18.4156683">
<ele>112</ele>
<time>2016-01-17T15:26:51Z</time>
</trkpt>
<trkpt lat="53.3335520" lon="18.4156683">
<ele>112</ele>
<time>2016-01-17T15:26:53Z</time>
</trkpt>
<trkpt lat="53.3335520" lon="18.4156683">
<ele>112</ele>
<time>2016-01-17T15:26:55Z</time>
</trkpt>
<trkpt lat="53.3335520" lon="18.4156683">
<ele>112</ele>
<time>2016-01-17T15:26:57Z</time>
</trkpt>
<trkpt lat="53.3335520" lon="18.4156683">
<ele>112</ele>
<time>2016-01-17T15:26:59Z</time>
</trkpt>
<trkpt lat="53.3335520" lon="18.4156683">
<ele>112</ele>
<time>2016-01-17T15:27:01Z</time>
</trkpt>
<trkpt lat="53.3335520" lon="18.4156683">
<ele>112</ele>
<time>2016-01-17T15:27:03Z</time>
</trkpt>
<trkpt lat="53.3335520" lon="18.4156683">
<ele>112</ele>
<time>2016-01-17T15:27:05Z</time>
</trkpt>
<trkpt lat="53.3335520" lon="18.4156683">
<ele>112</ele>
<time>2016-01-17T15:27:07Z</time>
</trkpt>
<trkpt lat="53.3335520" lon="18.4156683">
<ele>112</ele>
<time>2016-01-17T15:27:09Z</time>
</trkpt>
<trkpt lat="53.3335520" lon="18.4156683">
<ele>112</ele>
<time>2016-01-17T15:27:11Z</time>
</trkpt>
<trkpt lat="53.3335520" lon="18.4156683">
<ele>112</ele>
<time>2016-01-17T15:27:13Z</time>
</trkpt>
<trkpt lat="53.3335520" lon="18.4156683">
<ele>112</ele>
<time>2016-01-17T15:27:15Z</time>
</trkpt>
<trkpt lat="53.3335520" lon="18.4156683">
<ele>112</ele>
<time>2016-01-17T15:27:17Z</time>
</trkpt>
<trkpt lat="53.3335520" lon="18.4156683">
<ele>112</ele>
<time>2016-01-17T15:27:19Z</time>
</trkpt>
<trkpt lat="53.3335520" lon="18.4156683">
<ele>112</ele>
<time>2016-01-17T15:27:21Z</time>
</trkpt>
<trkpt lat="53.3335520" lon="18.4156683">
<ele>112</ele>
<time>2016-01-17T15:27:23Z</time>
</trkpt>
<trkpt lat="53.3335520" lon="18.4156683">
<ele>112</ele>
<time>2016-01-17T15:27:25Z</time>
</trkpt>
<trkpt lat="53.3335520" lon="18.4156683">
<ele>112</ele>
<time>2016-01-17T15:27:27Z</time>
</trkpt>
<trkpt lat="53.3335520" lon="18.4156683">
<ele>112</ele>
<time>2016-01-17T15:27:29Z</time>
</trkpt>
<trkpt lat="53.3335520" lon="18.4156683">
<ele>112</ele>
<time>2016-01-17T15:27:31Z</time>
</trkpt>
<trkpt lat="53.3335520" lon="18.4156683">
<ele>112</ele>
<time>2016-01-17T15:27:33Z</time>
</trkpt>
<trkpt lat="53.3335520" lon="18.4156683">
<ele>112</ele>
<time>2016-01-17T15:27:35Z</time>
</trkpt>
<trkpt lat="53.3335520" lon="18.4156683">
<ele>112</ele>
<time>2016-01-17T15:27:37Z</time>
</trkpt>
<trkpt lat="53.3335520" lon="18.4156683">
<ele>112</ele>
<time>2016-01-17T15:27:39Z</time>
</trkpt>
<trkpt lat="53.3335520" lon="18.4156683">
<ele>112</ele>
<time>2016-01-17T15:27:41Z</time>
</trkpt>
<trkpt lat="53.3335520" lon="18.4156683">
<ele>112</ele>
<time>2016-01-17T15:27:43Z</time>
</trkpt>
<trkpt lat="53.3335520" lon="18.4156683">
<ele>112</ele>
<time>2016-01-17T15:27:45Z</time>
</trkpt>
<trkpt lat="53.3335520" lon="18.4156683">
<ele>112</ele>
<time>2016-01-17T15:27:47Z</time>
</trkpt>
<trkpt lat="53.3335520" lon="18.4156683">
<ele>112</ele>
<time>2016-01-17T15:27:49Z</time>
</trkpt>
<trkpt lat="53.3335520" lon="18.4156683">
<ele>112</ele>
<time>2016-01-17T15:27:51Z</time>
</trkpt>
<trkpt lat="53.3335520" lon="18.4156683">
<ele>112</ele>
<time>2016-01-17T15:27:53Z</time>
</trkpt>
<trkpt lat="53.3335520" lon="18.4156683">
<ele>112</ele>
<time>2016-01-17T15:27:55Z</time>
</trkpt>
<trkpt lat="53.3335520" lon="18.4156683">
<ele>112</ele>
<time>2016-01-17T15:27:57Z</time>
</trkpt>
<trkpt lat="53.3335520" lon="18.4156683">
<ele>112</ele>
<time>2016-01-17T15:27:59Z</time>
</trkpt>
<trkpt lat="53.3335520" lon="18.4156683">
<ele>112</ele>
<time>2016-01-17T15:28:01Z</time>
</trkpt>
<trkpt lat="53.3335520" lon="18.4156683">
<ele>112</ele>
<time>2016-01-17T15:28:03Z</time>
</trkpt>
<trkpt lat="53.3335520" lon="18.4156683">
<ele>112</ele>
<time>2016-01-17T15:28:05Z</time>
</trkpt>
<trkpt lat="53.3335520" lon="18.4156683">
<ele>112</ele>
<time>2016-01-17T15:28:07Z</time>
</trkpt>
<trkpt lat="53.3335520" lon="18.4156683">
<ele>112</ele>
<time>2016-01-17T15:28:09Z</time>
</trkpt>
<trkpt lat="53.3335520" lon="18.4156683">
<ele>112</ele>
<time>2016-01-17T15:28:11Z</time>
</trkpt>
<trkpt lat="53.3335520" lon="18.4156683">
<ele>112</ele>
<time>2016-01-17T15:28:13Z</time>
</trkpt>
<trkpt lat="53.3335520" lon="18.4156683">
<ele>112</ele>
<time>2016-01-17T15:28:15Z</time>
</trkpt>
<trkpt lat="53.3335520" lon="18.4156683">
<ele>112</ele>
<time>2016-01-17T15:28:19Z</time>
</trkpt>
<trkpt lat="53.3335520" lon="18.4156683">
<ele>112</ele>
<time>2016-01-17T15:28:21Z</time>
</trkpt>
<trkpt lat="53.3335520" lon="18.4156683">
<ele>112</ele>
<time>2016-01-17T15:28:23Z</time>
</trkpt>
<trkpt lat="53.3335520" lon="18.4156683">
<ele>112</ele>
<time>2016-01-17T15:28:25Z</time>
</trkpt>
<trkpt lat="53.3335520" lon="18.4156683">
<ele>112</ele>
<time>2016-01-17T15:28:27Z</time>
</trkpt>
<trkpt lat="53.3335520" lon="18.4156683">
<ele>112</ele>
<time>2016-01-17T15:28:29Z</time>
</trkpt>
<trkpt lat="53.3335520" lon="18.4156683">
<ele>112</ele>
<time>2016-01-17T15:28:31Z</time>
</trkpt>
<trkpt lat="53.3335520" lon="18.4156683">
<ele>112</ele>
<time>2016-01-17T15:28:33Z</time>
</trkpt>
<trkpt lat="53.3335520" lon="18.4156683">
<ele>112</ele>
<time>2016-01-17T15:28:35Z</time>
</trkpt>
<trkpt lat="53.3335520" lon="18.4156683">
<ele>112</ele>
<time>2016-01-17T15:28:37Z</time>
</trkpt>
<trkpt lat="53.3335520" lon="18.4156683">
<ele>112</ele>
<time>2016-01-17T15:28:39Z</time>
</trkpt>
<trkpt lat="53.3335520" lon="18.4156683">
<ele>112</ele>
<time>2016-01-17T15:28:41Z</time>
</trkpt>
<trkpt lat="53.3335148" lon="18.4156617">
<ele>115</ele>
<time>2016-01-17T15:28:43Z</time>
</trkpt>
<trkpt lat="53.3335047" lon="18.4156568">
<ele>114</ele>
<time>2016-01-17T15:28:45Z</time>
</trkpt>
<trkpt lat="53.3334960" lon="18.4156595">
<ele>114</ele>
<time>2016-01-17T15:28:47Z</time>
</trkpt>
<trkpt lat="53.3334814" lon="18.4156807">
<ele>114</ele>
<time>2016-01-17T15:28:49Z</time>
</trkpt>
<trkpt lat="53.3334715" lon="18.4157024">
<ele>113</ele>
<time>2016-01-17T15:28:51Z</time>
</trkpt>
<trkpt lat="53.3334600" lon="18.4157171">
<ele>113</ele>
<time>2016-01-17T15:28:53Z</time>
</trkpt>
<trkpt lat="53.3334513" lon="18.4157279">
<ele>113</ele>
<time>2016-01-17T15:28:55Z</time>
</trkpt>
<trkpt lat="53.3334429" lon="18.4157346">
<ele>113</ele>
<time>2016-01-17T15:28:57Z</time>
</trkpt>
<trkpt lat="53.3334335" lon="18.4157319">
<ele>113</ele>
<time>2016-01-17T15:28:59Z</time>
</trkpt>
<trkpt lat="53.3334298" lon="18.4157409">
<ele>113</ele>
<time>2016-01-17T15:29:01Z</time>
</trkpt>
<trkpt lat="53.3334234" lon="18.4157487">
<ele>113</ele>
<time>2016-01-17T15:29:03Z</time>
</trkpt>
<trkpt lat="53.3334194" lon="18.4157606">
<ele>112</ele>
<time>2016-01-17T15:29:05Z</time>
</trkpt>
<trkpt lat="53.3334134" lon="18.4157732">
<ele>113</ele>
<time>2016-01-17T15:29:07Z</time>
</trkpt>
<trkpt lat="53.3334121" lon="18.4157733">
<ele>113</ele>
<time>2016-01-17T15:29:09Z</time>
</trkpt>
<trkpt lat="53.3334127" lon="18.4157739">
<ele>113</ele>
<time>2016-01-17T15:29:11Z</time>
</trkpt>
<trkpt lat="53.3334127" lon="18.4157739">
<ele>113</ele>
<time>2016-01-17T15:29:13Z</time>
</trkpt>
<trkpt lat="53.3334127" lon="18.4157739">
<ele>113</ele>
<time>2016-01-17T15:29:15Z</time>
</trkpt>
<trkpt lat="53.3334127" lon="18.4157739">
<ele>113</ele>
<time>2016-01-17T15:29:17Z</time>
</trkpt>
<trkpt lat="53.3334127" lon="18.4157739">
<ele>113</ele>
<time>2016-01-17T15:29:19Z</time>
</trkpt>
<trkpt lat="53.3334127" lon="18.4157739">
<ele>113</ele>
<time>2016-01-17T15:29:21Z</time>
</trkpt>
<trkpt lat="53.3334127" lon="18.4157739">
<ele>113</ele>
<time>2016-01-17T15:29:23Z</time>
</trkpt>
<trkpt lat="53.3334127" lon="18.4157739">
<ele>113</ele>
<time>2016-01-17T15:29:25Z</time>
</trkpt>
<trkpt lat="53.3334127" lon="18.4157739">
<ele>113</ele>
<time>2016-01-17T15:29:27Z</time>
</trkpt>
<trkpt lat="53.3334127" lon="18.4157739">
<ele>113</ele>
<time>2016-01-17T15:29:29Z</time>
</trkpt>
<trkpt lat="53.3334127" lon="18.4157739">
<ele>113</ele>
<time>2016-01-17T15:29:31Z</time>
</trkpt>
<trkpt lat="53.3334127" lon="18.4157739">
<ele>113</ele>
<time>2016-01-17T15:29:33Z</time>
</trkpt>
<trkpt lat="53.3334076" lon="18.4157978">
<ele>113</ele>
<time>2016-01-17T15:29:35Z</time>
</trkpt>
<trkpt lat="53.3334044" lon="18.4158046">
<ele>113</ele>
<time>2016-01-17T15:29:37Z</time>
</trkpt>
<trkpt lat="53.3334044" lon="18.4158046">
<ele>113</ele>
<time>2016-01-17T15:29:39Z</time>
</trkpt>
<trkpt lat="53.3334044" lon="18.4158046">
<ele>113</ele>
<time>2016-01-17T15:29:41Z</time>
</trkpt>
<trkpt lat="53.3334044" lon="18.4158046">
<ele>113</ele>
<time>2016-01-17T15:29:43Z</time>
</trkpt>
<trkpt lat="53.3334044" lon="18.4158046">
<ele>113</ele>
<time>2016-01-17T15:29:45Z</time>
</trkpt>
<trkpt lat="53.3334044" lon="18.4158046">
<ele>113</ele>
<time>2016-01-17T15:29:47Z</time>
</trkpt>
<trkpt lat="53.3334044" lon="18.4158046">
<ele>113</ele>
<time>2016-01-17T15:29:49Z</time>
</trkpt>
<trkpt lat="53.3334044" lon="18.4158046">
<ele>113</ele>
<time>2016-01-17T15:29:51Z</time>
</trkpt>
<trkpt lat="53.3334044" lon="18.4158046">
<ele>113</ele>
<time>2016-01-17T15:29:53Z</time>
</trkpt>
<trkpt lat="53.3334044" lon="18.4158046">
<ele>113</ele>
<time>2016-01-17T15:29:55Z</time>
</trkpt>
<trkpt lat="53.3334044" lon="18.4158046">
<ele>113</ele>
<time>2016-01-17T15:29:57Z</time>
</trkpt>
<trkpt lat="53.3334044" lon="18.4158046">
<ele>113</ele>
<time>2016-01-17T15:29:59Z</time>
</trkpt>
<trkpt lat="53.3334044" lon="18.4158046">
<ele>113</ele>
<time>2016-01-17T15:30:01Z</time>
</trkpt>
<trkpt lat="53.3334044" lon="18.4158046">
<ele>113</ele>
<time>2016-01-17T15:30:03Z</time>
</trkpt>
<trkpt lat="53.3334044" lon="18.4158046">
<ele>113</ele>
<time>2016-01-17T15:30:05Z</time>
</trkpt>
<trkpt lat="53.3334044" lon="18.4158046">
<ele>113</ele>
<time>2016-01-17T15:30:07Z</time>
</trkpt>
<trkpt lat="53.3334044" lon="18.4158046">
<ele>113</ele>
<time>2016-01-17T15:30:09Z</time>
</trkpt>
<trkpt lat="53.3334044" lon="18.4158046">
<ele>113</ele>
<time>2016-01-17T15:30:11Z</time>
</trkpt>
<trkpt lat="53.3334044" lon="18.4158046">
<ele>113</ele>
<time>2016-01-17T15:30:13Z</time>
</trkpt>
<trkpt lat="53.3334044" lon="18.4158046">
<ele>113</ele>
<time>2016-01-17T15:30:15Z</time>
</trkpt>
<trkpt lat="53.3334044" lon="18.4158046">
<ele>113</ele>
<time>2016-01-17T15:30:17Z</time>
</trkpt>
<trkpt lat="53.3334044" lon="18.4158046">
<ele>113</ele>
<time>2016-01-17T15:30:19Z</time>
</trkpt>
<trkpt lat="53.3334044" lon="18.4158046">
<ele>113</ele>
<time>2016-01-17T15:30:21Z</time>
</trkpt>
<trkpt lat="53.3334044" lon="18.4158046">
<ele>113</ele>
<time>2016-01-17T15:30:23Z</time>
</trkpt>
<trkpt lat="53.3334044" lon="18.4158046">
<ele>113</ele>
<time>2016-01-17T15:30:25Z</time>
</trkpt>
<trkpt lat="53.3334044" lon="18.4158046">
<ele>113</ele>
<time>2016-01-17T15:30:27Z</time>
</trkpt>
<trkpt lat="53.3334044" lon="18.4158046">
<ele>113</ele>
<time>2016-01-17T15:30:29Z</time>
</trkpt>
<trkpt lat="53.3334044" lon="18.4158046">
<ele>113</ele>
<time>2016-01-17T15:30:31Z</time>
</trkpt>
<trkpt lat="53.3334044" lon="18.4158046">
<ele>113</ele>
<time>2016-01-17T15:30:33Z</time>
</trkpt>
<trkpt lat="53.3334044" lon="18.4158046">
<ele>113</ele>
<time>2016-01-17T15:30:35Z</time>
</trkpt>
<trkpt lat="53.3334044" lon="18.4158046">
<ele>113</ele>
<time>2016-01-17T15:30:37Z</time>
</trkpt>
<trkpt lat="53.3334044" lon="18.4158046">
<ele>113</ele>
<time>2016-01-17T15:30:39Z</time>
</trkpt>
<trkpt lat="53.3333998" lon="18.4158260">
<ele>113</ele>
<time>2016-01-17T15:30:41Z</time>
</trkpt>
<trkpt lat="53.3334004" lon="18.4158427">
<ele>112</ele>
<time>2016-01-17T15:30:43Z</time>
</trkpt>
<trkpt lat="53.3334004" lon="18.4158427">
<ele>112</ele>
<time>2016-01-17T15:30:45Z</time>
</trkpt>
<trkpt lat="53.3334004" lon="18.4158427">
<ele>112</ele>
<time>2016-01-17T15:30:47Z</time>
</trkpt>
<trkpt lat="53.3334004" lon="18.4158427">
<ele>112</ele>
<time>2016-01-17T15:30:49Z</time>
</trkpt>
<trkpt lat="53.3334004" lon="18.4158427">
<ele>112</ele>
<time>2016-01-17T15:30:51Z</time>
</trkpt>
<trkpt lat="53.3334004" lon="18.4158427">
<ele>112</ele>
<time>2016-01-17T15:30:53Z</time>
</trkpt>
<trkpt lat="53.3334004" lon="18.4158427">
<ele>112</ele>
<time>2016-01-17T15:30:55Z</time>
</trkpt>
<trkpt lat="53.3334004" lon="18.4158427">
<ele>112</ele>
<time>2016-01-17T15:30:57Z</time>
</trkpt>
<trkpt lat="53.3334004" lon="18.4158427">
<ele>112</ele>
<time>2016-01-17T15:30:59Z</time>
</trkpt>
<trkpt lat="53.3334004" lon="18.4158427">
<ele>112</ele>
<time>2016-01-17T15:31:01Z</time>
</trkpt>
<trkpt lat="53.3334004" lon="18.4158427">
<ele>112</ele>
<time>2016-01-17T15:31:03Z</time>
</trkpt>
<trkpt lat="53.3334004" lon="18.4158427">
<ele>112</ele>
<time>2016-01-17T15:31:05Z</time>
</trkpt>
<trkpt lat="53.3334004" lon="18.4158427">
<ele>112</ele>
<time>2016-01-17T15:31:07Z</time>
</trkpt>
<trkpt lat="53.3334030" lon="18.4158343">
<ele>112</ele>
<time>2016-01-17T15:31:09Z</time>
</trkpt>
<trkpt lat="53.3334088" lon="18.4158162">
<ele>112</ele>
<time>2016-01-17T15:31:11Z</time>
</trkpt>
<trkpt lat="53.3334185" lon="18.4157997">
<ele>112</ele>
<time>2016-01-17T15:31:13Z</time>
</trkpt>
<trkpt lat="53.3334279" lon="18.4157809">
<ele>112</ele>
<time>2016-01-17T15:31:15Z</time>
</trkpt>
<trkpt lat="53.3334310" lon="18.4157697">
<ele>112</ele>
<time>2016-01-17T15:31:17Z</time>
</trkpt>
<trkpt lat="53.3334328" lon="18.4157651">
<ele>112</ele>
<time>2016-01-17T15:31:19Z</time>
</trkpt>
<trkpt lat="53.3334385" lon="18.4157463">
<ele>111</ele>
<time>2016-01-17T15:31:21Z</time>
</trkpt>
<trkpt lat="53.3334417" lon="18.4157193">
<ele>111</ele>
<time>2016-01-17T15:31:23Z</time>
</trkpt>
<trkpt lat="53.3334419" lon="18.4157121">
<ele>111</ele>
<time>2016-01-17T15:31:25Z</time>
</trkpt>
<trkpt lat="53.3334424" lon="18.4157035">
<ele>111</ele>
<time>2016-01-17T15:31:27Z</time>
</trkpt>
<trkpt lat="53.3334425" lon="18.4156878">
<ele>111</ele>
<time>2016-01-17T15:31:29Z</time>
</trkpt>
<trkpt lat="53.3334451" lon="18.4156756">
<ele>111</ele>
<time>2016-01-17T15:31:31Z</time>
</trkpt>
<trkpt lat="53.3334451" lon="18.4156756">
<ele>111</ele>
<time>2016-01-17T15:31:33Z</time>
</trkpt>
<trkpt lat="53.3334451" lon="18.4156756">
<ele>111</ele>
<time>2016-01-17T15:31:35Z</time>
</trkpt>
<trkpt lat="53.3334451" lon="18.4156756">
<ele>111</ele>
<time>2016-01-17T15:31:39Z</time>
</trkpt>
<trkpt lat="53.3334451" lon="18.4156756">
<ele>111</ele>
<time>2016-01-17T15:31:41Z</time>
</trkpt>
<trkpt lat="53.3334451" lon="18.4156756">
<ele>111</ele>
<time>2016-01-17T15:31:43Z</time>
</trkpt>
<trkpt lat="53.3334451" lon="18.4156756">
<ele>111</ele>
<time>2016-01-17T15:31:45Z</time>
</trkpt>
<trkpt lat="53.3334451" lon="18.4156756">
<ele>111</ele>
<time>2016-01-17T15:31:47Z</time>
</trkpt>
<trkpt lat="53.3334451" lon="18.4156756">
<ele>111</ele>
<time>2016-01-17T15:31:49Z</time>
</trkpt>
<trkpt lat="53.3334451" lon="18.4156756">
<ele>111</ele>
<time>2016-01-17T15:31:51Z</time>
</trkpt>
<trkpt lat="53.3334451" lon="18.4156756">
<ele>111</ele>
<time>2016-01-17T15:31:53Z</time>
</trkpt>
<trkpt lat="53.3334451" lon="18.4156756">
<ele>111</ele>
<time>2016-01-17T15:31:55Z</time>
</trkpt>
<trkpt lat="53.3334451" lon="18.4156756">
<ele>111</ele>
<time>2016-01-17T15:31:57Z</time>
</trkpt>
<trkpt lat="53.3334451" lon="18.4156756">
<ele>111</ele>
<time>2016-01-17T15:31:59Z</time>
</trkpt>
<trkpt lat="53.3334451" lon="18.4156756">
<ele>111</ele>
<time>2016-01-17T15:32:01Z</time>
</trkpt>
<trkpt lat="53.3334451" lon="18.4156756">
<ele>111</ele>
<time>2016-01-17T15:32:03Z</time>
</trkpt>
<trkpt lat="53.3334451" lon="18.4156756">
<ele>111</ele>
<time>2016-01-17T15:32:05Z</time>
</trkpt>
<trkpt lat="53.3334451" lon="18.4156756">
<ele>111</ele>
<time>2016-01-17T15:32:07Z</time>
</trkpt>
<trkpt lat="53.3334451" lon="18.4156756">
<ele>111</ele>
<time>2016-01-17T15:32:09Z</time>
</trkpt>
<trkpt lat="53.3334451" lon="18.4156756">
<ele>111</ele>
<time>2016-01-17T15:32:11Z</time>
</trkpt>
<trkpt lat="53.3334451" lon="18.4156756">
<ele>111</ele>
<time>2016-01-17T15:32:13Z</time>
</trkpt>
<trkpt lat="53.3334451" lon="18.4156756">
<ele>111</ele>
<time>2016-01-17T15:32:15Z</time>
</trkpt>
<trkpt lat="53.3334451" lon="18.4156756">
<ele>111</ele>
<time>2016-01-17T15:32:17Z</time>
</trkpt>
<trkpt lat="53.3334451" lon="18.4156756">
<ele>111</ele>
<time>2016-01-17T15:32:19Z</time>
</trkpt>
<trkpt lat="53.3334451" lon="18.4156756">
<ele>111</ele>
<time>2016-01-17T15:32:21Z</time>
</trkpt>
<trkpt lat="53.3334451" lon="18.4156756">
<ele>111</ele>
<time>2016-01-17T15:32:23Z</time>
</trkpt>
<trkpt lat="53.3334451" lon="18.4156756">
<ele>111</ele>
<time>2016-01-17T15:32:25Z</time>
</trkpt>
<trkpt lat="53.3334451" lon="18.4156756">
<ele>111</ele>
<time>2016-01-17T15:32:27Z</time>
</trkpt>
<trkpt lat="53.3334451" lon="18.4156756">
<ele>111</ele>
<time>2016-01-17T15:32:31Z</time>
</trkpt>
<trkpt lat="53.3334451" lon="18.4156756">
<ele>111</ele>
<time>2016-01-17T15:32:33Z</time>
</trkpt>
<trkpt lat="53.3334451" lon="18.4156756">
<ele>111</ele>
<time>2016-01-17T15:32:35Z</time>
</trkpt>
<trkpt lat="53.3334451" lon="18.4156756">
<ele>111</ele>
<time>2016-01-17T15:32:37Z</time>
</trkpt>
<trkpt lat="53.3334451" lon="18.4156756">
<ele>111</ele>
<time>2016-01-17T15:32:39Z</time>
</trkpt>
<trkpt lat="53.3334451" lon="18.4156756">
<ele>111</ele>
<time>2016-01-17T15:32:41Z</time>
</trkpt>
<trkpt lat="53.3334451" lon="18.4156756">
<ele>111</ele>
<time>2016-01-17T15:32:43Z</time>
</trkpt>
<trkpt lat="53.3334451" lon="18.4156756">
<ele>111</ele>
<time>2016-01-17T15:32:45Z</time>
</trkpt>
<trkpt lat="53.3334451" lon="18.4156756">
<ele>111</ele>
<time>2016-01-17T15:32:47Z</time>
</trkpt>
<trkpt lat="53.3334451" lon="18.4156756">
<ele>111</ele>
<time>2016-01-17T15:32:49Z</time>
</trkpt>
<trkpt lat="53.3334451" lon="18.4156756">
<ele>111</ele>
<time>2016-01-17T15:32:51Z</time>
</trkpt>
<trkpt lat="53.3334451" lon="18.4156756">
<ele>111</ele>
<time>2016-01-17T15:32:53Z</time>
</trkpt>
<trkpt lat="53.3334451" lon="18.4156756">
<ele>111</ele>
<time>2016-01-17T15:32:55Z</time>
</trkpt>
<trkpt lat="53.3334451" lon="18.4156756">
<ele>111</ele>
<time>2016-01-17T15:32:57Z</time>
</trkpt>
<trkpt lat="53.3334451" lon="18.4156756">
<ele>111</ele>
<time>2016-01-17T15:32:59Z</time>
</trkpt>
<trkpt lat="53.3334451" lon="18.4156756">
<ele>111</ele>
<time>2016-01-17T15:33:01Z</time>
</trkpt>
<trkpt lat="53.3334451" lon="18.4156756">
<ele>111</ele>
<time>2016-01-17T15:33:03Z</time>
</trkpt>
<trkpt lat="53.3334451" lon="18.4156756">
<ele>111</ele>
<time>2016-01-17T15:33:05Z</time>
</trkpt>
<trkpt lat="53.3334451" lon="18.4156756">
<ele>111</ele>
<time>2016-01-17T15:33:07Z</time>
</trkpt>
<trkpt lat="53.3334451" lon="18.4156756">
<ele>111</ele>
<time>2016-01-17T15:33:09Z</time>
</trkpt>
<trkpt lat="53.3334451" lon="18.4156756">
<ele>111</ele>
<time>2016-01-17T15:33:11Z</time>
</trkpt>
<trkpt lat="53.3334451" lon="18.4156756">
<ele>111</ele>
<time>2016-01-17T15:33:13Z</time>
</trkpt>
<trkpt lat="53.3334451" lon="18.4156756">
<ele>111</ele>
<time>2016-01-17T15:33:15Z</time>
</trkpt>
<trkpt lat="53.3334512" lon="18.4156740">
<ele>111</ele>
<time>2016-01-17T15:33:17Z</time>
</trkpt>
<trkpt lat="53.3334737" lon="18.4156862">
<ele>111</ele>
<time>2016-01-17T15:33:19Z</time>
</trkpt>
<trkpt lat="53.3334746" lon="18.4157043">
<ele>111</ele>
<time>2016-01-17T15:33:21Z</time>
</trkpt>
<trkpt lat="53.3334738" lon="18.4157052">
<ele>110</ele>
<time>2016-01-17T15:33:23Z</time>
</trkpt>
<trkpt lat="53.3334738" lon="18.4157052">
<ele>110</ele>
<time>2016-01-17T15:33:25Z</time>
</trkpt>
<trkpt lat="53.3334738" lon="18.4157052">
<ele>110</ele>
<time>2016-01-17T15:33:27Z</time>
</trkpt>
<trkpt lat="53.3334738" lon="18.4157052">
<ele>110</ele>
<time>2016-01-17T15:33:29Z</time>
</trkpt>
<trkpt lat="53.3334738" lon="18.4157052">
<ele>110</ele>
<time>2016-01-17T15:33:31Z</time>
</trkpt>
<trkpt lat="53.3334738" lon="18.4157052">
<ele>110</ele>
<time>2016-01-17T15:33:33Z</time>
</trkpt>
<trkpt lat="53.3334738" lon="18.4157052">
<ele>110</ele>
<time>2016-01-17T15:33:35Z</time>
</trkpt>
<trkpt lat="53.3334738" lon="18.4157052">
<ele>110</ele>
<time>2016-01-17T15:33:37Z</time>
</trkpt>
<trkpt lat="53.3334738" lon="18.4157052">
<ele>110</ele>
<time>2016-01-17T15:33:39Z</time>
</trkpt>
<trkpt lat="53.3334738" lon="18.4157052">
<ele>110</ele>
<time>2016-01-17T15:33:41Z</time>
</trkpt>
<trkpt lat="53.3334738" lon="18.4157052">
<ele>110</ele>
<time>2016-01-17T15:33:43Z</time>
</trkpt>
<trkpt lat="53.3334738" lon="18.4157052">
<ele>110</ele>
<time>2016-01-17T15:33:45Z</time>
</trkpt>
<trkpt lat="53.3334738" lon="18.4157052">
<ele>110</ele>
<time>2016-01-17T15:33:47Z</time>
</trkpt>
<trkpt lat="53.3334738" lon="18.4157052">
<ele>110</ele>
<time>2016-01-17T15:33:49Z</time>
</trkpt>
<trkpt lat="53.3334738" lon="18.4157052">
<ele>110</ele>
<time>2016-01-17T15:33:51Z</time>
</trkpt>
<trkpt lat="53.3334738" lon="18.4157052">
<ele>110</ele>
<time>2016-01-17T15:33:53Z</time>
</trkpt>
<trkpt lat="53.3334738" lon="18.4157052">
<ele>110</ele>
<time>2016-01-17T15:33:55Z</time>
</trkpt>
<trkpt lat="53.3334738" lon="18.4157052">
<ele>110</ele>
<time>2016-01-17T15:33:57Z</time>
</trkpt>
<trkpt lat="53.3334738" lon="18.4157052">
<ele>110</ele>
<time>2016-01-17T15:33:59Z</time>
</trkpt>
<trkpt lat="53.3334738" lon="18.4157052">
<ele>110</ele>
<time>2016-01-17T15:34:01Z</time>
</trkpt>
<trkpt lat="53.3334738" lon="18.4157052">
<ele>110</ele>
<time>2016-01-17T15:34:03Z</time>
</trkpt>
<trkpt lat="53.3334738" lon="18.4157052">
<ele>110</ele>
<time>2016-01-17T15:34:07Z</time>
</trkpt>
<trkpt lat="53.3334738" lon="18.4157052">
<ele>110</ele>
<time>2016-01-17T15:34:09Z</time>
</trkpt>
<trkpt lat="53.3334738" lon="18.4157052">
<ele>110</ele>
<time>2016-01-17T15:34:11Z</time>
</trkpt>
<trkpt lat="53.3334738" lon="18.4157052">
<ele>110</ele>
<time>2016-01-17T15:34:13Z</time>
</trkpt>
<trkpt lat="53.3334738" lon="18.4157052">
<ele>110</ele>
<time>2016-01-17T15:34:15Z</time>
</trkpt>
<trkpt lat="53.3334738" lon="18.4157052">
<ele>110</ele>
<time>2016-01-17T15:34:17Z</time>
</trkpt>
<trkpt lat="53.3334738" lon="18.4157052">
<ele>110</ele>
<time>2016-01-17T15:34:19Z</time>
</trkpt>
<trkpt lat="53.3334738" lon="18.4157052">
<ele>110</ele>
<time>2016-01-17T15:34:21Z</time>
</trkpt>
<trkpt lat="53.3334738" lon="18.4157052">
<ele>110</ele>
<time>2016-01-17T15:34:23Z</time>
</trkpt>
<trkpt lat="53.3334738" lon="18.4157052">
<ele>110</ele>
<time>2016-01-17T15:34:25Z</time>
</trkpt>
<trkpt lat="53.3334738" lon="18.4157052">
<ele>110</ele>
<time>2016-01-17T15:34:27Z</time>
</trkpt>
<trkpt lat="53.3334738" lon="18.4157052">
<ele>110</ele>
<time>2016-01-17T15:34:29Z</time>
</trkpt>
<trkpt lat="53.3334738" lon="18.4157052">
<ele>110</ele>
<time>2016-01-17T15:34:31Z</time>
</trkpt>
<trkpt lat="53.3334738" lon="18.4157052">
<ele>110</ele>
<time>2016-01-17T15:34:33Z</time>
</trkpt>
<trkpt lat="53.3334738" lon="18.4157052">
<ele>110</ele>
<time>2016-01-17T15:34:35Z</time>
</trkpt>
<trkpt lat="53.3334738" lon="18.4157052">
<ele>110</ele>
<time>2016-01-17T15:34:37Z</time>
</trkpt>
<trkpt lat="53.3334738" lon="18.4157052">
<ele>110</ele>
<time>2016-01-17T15:34:39Z</time>
</trkpt>
<trkpt lat="53.3334738" lon="18.4157052">
<ele>110</ele>
<time>2016-01-17T15:34:41Z</time>
</trkpt>
<trkpt lat="53.3334738" lon="18.4157052">
<ele>110</ele>
<time>2016-01-17T15:34:43Z</time>
</trkpt>
<trkpt lat="53.3334738" lon="18.4157052">
<ele>110</ele>
<time>2016-01-17T15:34:45Z</time>
</trkpt>
<trkpt lat="53.3334738" lon="18.4157052">
<ele>110</ele>
<time>2016-01-17T15:34:47Z</time>
</trkpt>
<trkpt lat="53.3334738" lon="18.4157052">
<ele>110</ele>
<time>2016-01-17T15:34:49Z</time>
</trkpt>
<trkpt lat="53.3334738" lon="18.4157052">
<ele>110</ele>
<time>2016-01-17T15:34:51Z</time>
</trkpt>
<trkpt lat="53.3334738" lon="18.4157052">
<ele>110</ele>
<time>2016-01-17T15:34:53Z</time>
</trkpt>
<trkpt lat="53.3334738" lon="18.4157052">
<ele>110</ele>
<time>2016-01-17T15:34:55Z</time>
</trkpt>
<trkpt lat="53.3334738" lon="18.4157052">
<ele>110</ele>
<time>2016-01-17T15:34:57Z</time>
</trkpt>
<trkpt lat="53.3334738" lon="18.4157052">
<ele>110</ele>
<time>2016-01-17T15:34:59Z</time>
</trkpt>
<trkpt lat="53.3334738" lon="18.4157052">
<ele>110</ele>
<time>2016-01-17T15:35:01Z</time>
</trkpt>
<trkpt lat="53.3334738" lon="18.4157052">
<ele>110</ele>
<time>2016-01-17T15:35:03Z</time>
</trkpt>
<trkpt lat="53.3334738" lon="18.4157052">
<ele>110</ele>
<time>2016-01-17T15:35:05Z</time>
</trkpt>
<trkpt lat="53.3334738" lon="18.4157052">
<ele>110</ele>
<time>2016-01-17T15:35:07Z</time>
</trkpt>
<trkpt lat="53.3334566" lon="18.4157059">
<ele>110</ele>
<time>2016-01-17T15:35:09Z</time>
</trkpt>
<trkpt lat="53.3334245" lon="18.4157247">
<ele>110</ele>
<time>2016-01-17T15:35:11Z</time>
</trkpt>
<trkpt lat="53.3333830" lon="18.4157793">
<ele>110</ele>
<time>2016-01-17T15:35:13Z</time>
</trkpt>
<trkpt lat="53.3333441" lon="18.4158554">
<ele>110</ele>
<time>2016-01-17T15:35:15Z</time>
</trkpt>
<trkpt lat="53.3332932" lon="18.4159543">
<ele>110</ele>
<time>2016-01-17T15:35:17Z</time>
</trkpt>
<trkpt lat="53.3332361" lon="18.4160601">
<ele>110</ele>
<time>2016-01-17T15:35:19Z</time>
</trkpt>
<trkpt lat="53.3331715" lon="18.4161764">
<ele>111</ele>
<time>2016-01-17T15:35:21Z</time>
</trkpt>
<trkpt lat="53.3331111" lon="18.4162863">
<ele>111</ele>
<time>2016-01-17T15:35:23Z</time>
</trkpt>
<trkpt lat="53.3330448" lon="18.4164070">
<ele>111</ele>
<time>2016-01-17T15:35:25Z</time>
</trkpt>
<trkpt lat="53.3329735" lon="18.4165363">
<ele>111</ele>
<time>2016-01-17T15:35:27Z</time>
</trkpt>
<trkpt lat="53.3329109" lon="18.4166832">
<ele>111</ele>
<time>2016-01-17T15:35:29Z</time>
</trkpt>
<trkpt lat="53.3328571" lon="18.4168376">
<ele>110</ele>
<time>2016-01-17T15:35:31Z</time>
</trkpt>
<trkpt lat="53.3328250" lon="18.4169983">
<ele>109</ele>
<time>2016-01-17T15:35:33Z</time>
</trkpt>
<trkpt lat="53.3328441" lon="18.4171721">
<ele>109</ele>
<time>2016-01-17T15:35:35Z</time>
</trkpt>
<trkpt lat="53.3328824" lon="18.4173549">
<ele>109</ele>
<time>2016-01-17T15:35:37Z</time>
</trkpt>
<trkpt lat="53.3329143" lon="18.4175546">
<ele>109</ele>
<time>2016-01-17T15:35:39Z</time>
</trkpt>
<trkpt lat="53.3329474" lon="18.4177364">
<ele>108</ele>
<time>2016-01-17T15:35:41Z</time>
</trkpt>
<trkpt lat="53.3329817" lon="18.4179148">
<ele>108</ele>
<time>2016-01-17T15:35:43Z</time>
</trkpt>
<trkpt lat="53.3330071" lon="18.4180944">
<ele>107</ele>
<time>2016-01-17T15:35:45Z</time>
</trkpt>
<trkpt lat="53.3330330" lon="18.4182658">
<ele>107</ele>
<time>2016-01-17T15:35:47Z</time>
</trkpt>
<trkpt lat="53.3330560" lon="18.4184455">
<ele>106</ele>
<time>2016-01-17T15:35:49Z</time>
</trkpt>
<trkpt lat="53.3330819" lon="18.4186237">
<ele>106</ele>
<time>2016-01-17T15:35:51Z</time>
</trkpt>
<trkpt lat="53.3331041" lon="18.4187893">
<ele>106</ele>
<time>2016-01-17T15:35:53Z</time>
</trkpt>
<trkpt lat="53.3331253" lon="18.4190178">
<ele>107</ele>
<time>2016-01-17T15:35:57Z</time>
</trkpt>
<trkpt lat="53.3331187" lon="18.4190493">
<ele>108</ele>
<time>2016-01-17T15:35:59Z</time>
</trkpt>
<trkpt lat="53.3331187" lon="18.4190493">
<ele>108</ele>
<time>2016-01-17T15:36:01Z</time>
</trkpt>
<trkpt lat="53.3331259" lon="18.4190720">
<ele>108</ele>
<time>2016-01-17T15:36:03Z</time>
</trkpt>
<trkpt lat="53.3331716" lon="18.4191011">
<ele>108</ele>
<time>2016-01-17T15:36:05Z</time>
</trkpt>
<trkpt lat="53.3332664" lon="18.4191066">
<ele>107</ele>
<time>2016-01-17T15:36:07Z</time>
</trkpt>
<trkpt lat="53.3333844" lon="18.4191133">
<ele>107</ele>
<time>2016-01-17T15:36:09Z</time>
</trkpt>
<trkpt lat="53.3335158" lon="18.4191264">
<ele>107</ele>
<time>2016-01-17T15:36:11Z</time>
</trkpt>
<trkpt lat="53.3336596" lon="18.4191565">
<ele>106</ele>
<time>2016-01-17T15:36:13Z</time>
</trkpt>
<trkpt lat="53.3337911" lon="18.4192110">
<ele>106</ele>
<time>2016-01-17T15:36:15Z</time>
</trkpt>
<trkpt lat="53.3339190" lon="18.4192785">
<ele>106</ele>
<time>2016-01-17T15:36:17Z</time>
</trkpt>
<trkpt lat="53.3340320" lon="18.4193589">
<ele>107</ele>
<time>2016-01-17T15:36:19Z</time>
</trkpt>
<trkpt lat="53.3341500" lon="18.4194653">
<ele>108</ele>
<time>2016-01-17T15:36:21Z</time>
</trkpt>
<trkpt lat="53.3342832" lon="18.4195809">
<ele>108</ele>
<time>2016-01-17T15:36:23Z</time>
</trkpt>
<trkpt lat="53.3344273" lon="18.4196944">
<ele>108</ele>
<time>2016-01-17T15:36:25Z</time>
</trkpt>
<trkpt lat="53.3345799" lon="18.4198193">
<ele>107</ele>
<time>2016-01-17T15:36:27Z</time>
</trkpt>
<trkpt lat="53.3347410" lon="18.4199445">
<ele>107</ele>
<time>2016-01-17T15:36:29Z</time>
</trkpt>
<trkpt lat="53.3349096" lon="18.4200655">
<ele>107</ele>
<time>2016-01-17T15:36:31Z</time>
</trkpt>
<trkpt lat="53.3350798" lon="18.4201808">
<ele>106</ele>
<time>2016-01-17T15:36:33Z</time>
</trkpt>
<trkpt lat="53.3352537" lon="18.4202842">
<ele>106</ele>
<time>2016-01-17T15:36:35Z</time>
</trkpt>
<trkpt lat="53.3354402" lon="18.4203764">
<ele>105</ele>
<time>2016-01-17T15:36:37Z</time>
</trkpt>
<trkpt lat="53.3356311" lon="18.4204516">
<ele>105</ele>
<time>2016-01-17T15:36:39Z</time>
</trkpt>
<trkpt lat="53.3358219" lon="18.4204888">
<ele>104</ele>
<time>2016-01-17T15:36:41Z</time>
</trkpt>
<trkpt lat="53.3360235" lon="18.4204771">
<ele>102</ele>
<time>2016-01-17T15:36:43Z</time>
</trkpt>
<trkpt lat="53.3362305" lon="18.4204322">
<ele>102</ele>
<time>2016-01-17T15:36:45Z</time>
</trkpt>
<trkpt lat="53.3364552" lon="18.4203699">
<ele>101</ele>
<time>2016-01-17T15:36:47Z</time>
</trkpt>
<trkpt lat="53.3366818" lon="18.4202651">
<ele>100</ele>
<time>2016-01-17T15:36:49Z</time>
</trkpt>
<trkpt lat="53.3368970" lon="18.4201199">
<ele>98</ele>
<time>2016-01-17T15:36:51Z</time>
</trkpt>
<trkpt lat="53.3371074" lon="18.4199400">
<ele>96</ele>
<time>2016-01-17T15:36:53Z</time>
</trkpt>
<trkpt lat="53.3373121" lon="18.4197601">
<ele>95</ele>
<time>2016-01-17T15:36:55Z</time>
</trkpt>
<trkpt lat="53.3375045" lon="18.4195947">
<ele>95</ele>
<time>2016-01-17T15:36:57Z</time>
</trkpt>
<trkpt lat="53.3376703" lon="18.4195005">
<ele>94</ele>
<time>2016-01-17T15:36:59Z</time>
</trkpt>
<trkpt lat="53.3378386" lon="18.4194900">
<ele>94</ele>
<time>2016-01-17T15:37:01Z</time>
</trkpt>
<trkpt lat="53.3380113" lon="18.4195897">
<ele>93</ele>
<time>2016-01-17T15:37:03Z</time>
</trkpt>
<trkpt lat="53.3381944" lon="18.4196871">
<ele>92</ele>
<time>2016-01-17T15:37:05Z</time>
</trkpt>
<trkpt lat="53.3383767" lon="18.4197738">
<ele>91</ele>
<time>2016-01-17T15:37:07Z</time>
</trkpt>
<trkpt lat="53.3385644" lon="18.4198365">
<ele>89</ele>
<time>2016-01-17T15:37:09Z</time>
</trkpt>
<trkpt lat="53.3387717" lon="18.4198384">
<ele>88</ele>
<time>2016-01-17T15:37:11Z</time>
</trkpt>
<trkpt lat="53.3389703" lon="18.4197588">
<ele>87</ele>
<time>2016-01-17T15:37:13Z</time>
</trkpt>
<trkpt lat="53.3391705" lon="18.4196363">
<ele>86</ele>
<time>2016-01-17T15:37:15Z</time>
</trkpt>
<trkpt lat="53.3393787" lon="18.4195133">
<ele>87</ele>
<time>2016-01-17T15:37:17Z</time>
</trkpt>
<trkpt lat="53.3395855" lon="18.4193761">
<ele>86</ele>
<time>2016-01-17T15:37:19Z</time>
</trkpt>
<trkpt lat="53.3397754" lon="18.4192088">
<ele>85</ele>
<time>2016-01-17T15:37:21Z</time>
</trkpt>
<trkpt lat="53.3399563" lon="18.4189918">
<ele>83</ele>
<time>2016-01-17T15:37:23Z</time>
</trkpt>
<trkpt lat="53.3401351" lon="18.4187362">
<ele>82</ele>
<time>2016-01-17T15:37:25Z</time>
</trkpt>
<trkpt lat="53.3403163" lon="18.4184805">
<ele>80</ele>
<time>2016-01-17T15:37:27Z</time>
</trkpt>
<trkpt lat="53.3405072" lon="18.4182229">
<ele>79</ele>
<time>2016-01-17T15:37:29Z</time>
</trkpt>
<trkpt lat="53.3407016" lon="18.4179728">
<ele>79</ele>
<time>2016-01-17T15:37:31Z</time>
</trkpt>
<trkpt lat="53.3409024" lon="18.4177484">
<ele>78</ele>
<time>2016-01-17T15:37:33Z</time>
</trkpt>
<trkpt lat="53.3411133" lon="18.4175518">
<ele>77</ele>
<time>2016-01-17T15:37:35Z</time>
</trkpt>
<trkpt lat="53.3413485" lon="18.4174503">
<ele>77</ele>
<time>2016-01-17T15:37:37Z</time>
</trkpt>
<trkpt lat="53.3416098" lon="18.4174668">
<ele>76</ele>
<time>2016-01-17T15:37:39Z</time>
</trkpt>
<trkpt lat="53.3418624" lon="18.4175656">
<ele>75</ele>
<time>2016-01-17T15:37:41Z</time>
</trkpt>
<trkpt lat="53.3420955" lon="18.4176873">
<ele>72</ele>
<time>2016-01-17T15:37:43Z</time>
</trkpt>
<trkpt lat="53.3423268" lon="18.4178199">
<ele>71</ele>
<time>2016-01-17T15:37:45Z</time>
</trkpt>
<trkpt lat="53.3425777" lon="18.4179529">
<ele>69</ele>
<time>2016-01-17T15:37:47Z</time>
</trkpt>
<trkpt lat="53.3428483" lon="18.4180961">
<ele>69</ele>
<time>2016-01-17T15:37:49Z</time>
</trkpt>
<trkpt lat="53.3431343" lon="18.4182379">
<ele>69</ele>
<time>2016-01-17T15:37:51Z</time>
</trkpt>
<trkpt lat="53.3434299" lon="18.4183827">
<ele>69</ele>
<time>2016-01-17T15:37:53Z</time>
</trkpt>
<trkpt lat="53.3437278" lon="18.4185243">
<ele>70</ele>
<time>2016-01-17T15:37:55Z</time>
</trkpt>
<trkpt lat="53.3440113" lon="18.4186631">
<ele>69</ele>
<time>2016-01-17T15:37:57Z</time>
</trkpt>
<trkpt lat="53.3442663" lon="18.4187863">
<ele>69</ele>
<time>2016-01-17T15:37:59Z</time>
</trkpt>
<trkpt lat="53.3445042" lon="18.4189115">
<ele>70</ele>
<time>2016-01-17T15:38:01Z</time>
</trkpt>
<trkpt lat="53.3447273" lon="18.4190882">
<ele>72</ele>
<time>2016-01-17T15:38:03Z</time>
</trkpt>
<trkpt lat="53.3449133" lon="18.4193155">
<ele>73</ele>
<time>2016-01-17T15:38:05Z</time>
</trkpt>
<trkpt lat="53.3450677" lon="18.4196188">
<ele>74</ele>
<time>2016-01-17T15:38:07Z</time>
</trkpt>
<trkpt lat="53.3451815" lon="18.4199897">
<ele>76</ele>
<time>2016-01-17T15:38:09Z</time>
</trkpt>
<trkpt lat="53.3452634" lon="18.4203791">
<ele>79</ele>
<time>2016-01-17T15:38:11Z</time>
</trkpt>
<trkpt lat="53.3453357" lon="18.4207831">
<ele>80</ele>
<time>2016-01-17T15:38:13Z</time>
</trkpt>
<trkpt lat="53.3454143" lon="18.4211721">
<ele>82</ele>
<time>2016-01-17T15:38:15Z</time>
</trkpt>
<trkpt lat="53.3454970" lon="18.4215563">
<ele>83</ele>
<time>2016-01-17T15:38:17Z</time>
</trkpt>
<trkpt lat="53.3455796" lon="18.4219281">
<ele>83</ele>
<time>2016-01-17T15:38:19Z</time>
</trkpt>
<trkpt lat="53.3456765" lon="18.4222794">
<ele>85</ele>
<time>2016-01-17T15:38:21Z</time>
</trkpt>
<trkpt lat="53.3458099" lon="18.4226018">
<ele>86</ele>
<time>2016-01-17T15:38:23Z</time>
</trkpt>
<trkpt lat="53.3459622" lon="18.4229121">
<ele>87</ele>
<time>2016-01-17T15:38:25Z</time>
</trkpt>
<trkpt lat="53.3461118" lon="18.4232135">
<ele>88</ele>
<time>2016-01-17T15:38:27Z</time>
</trkpt>
<trkpt lat="53.3462663" lon="18.4235031">
<ele>90</ele>
<time>2016-01-17T15:38:29Z</time>
</trkpt>
<trkpt lat="53.3464184" lon="18.4237778">
<ele>90</ele>
<time>2016-01-17T15:38:31Z</time>
</trkpt>
<trkpt lat="53.3465815" lon="18.4239324">
<ele>90</ele>
<time>2016-01-17T15:38:33Z</time>
</trkpt>
<trkpt lat="53.3467728" lon="18.4239404">
<ele>91</ele>
<time>2016-01-17T15:38:35Z</time>
</trkpt>
<trkpt lat="53.3469335" lon="18.4238985">
<ele>92</ele>
<time>2016-01-17T15:38:37Z</time>
</trkpt>
<trkpt lat="53.3470534" lon="18.4239045">
<ele>93</ele>
<time>2016-01-17T15:38:39Z</time>
</trkpt>
<trkpt lat="53.3471163" lon="18.4240025">
<ele>93</ele>
<time>2016-01-17T15:38:41Z</time>
</trkpt>
<trkpt lat="53.3471319" lon="18.4241423">
<ele>94</ele>
<time>2016-01-17T15:38:43Z</time>
</trkpt>
<trkpt lat="53.3471762" lon="18.4243002">
<ele>95</ele>
<time>2016-01-17T15:38:45Z</time>
</trkpt>
<trkpt lat="53.3472235" lon="18.4244874">
<ele>96</ele>
<time>2016-01-17T15:38:47Z</time>
</trkpt>
<trkpt lat="53.3472858" lon="18.4246880">
<ele>95</ele>
<time>2016-01-17T15:38:49Z</time>
</trkpt>
<trkpt lat="53.3473591" lon="18.4248870">
<ele>95</ele>
<time>2016-01-17T15:38:51Z</time>
</trkpt>
<trkpt lat="53.3474294" lon="18.4250893">
<ele>95</ele>
<time>2016-01-17T15:38:53Z</time>
</trkpt>
<trkpt lat="53.3474976" lon="18.4252907">
<ele>95</ele>
<time>2016-01-17T15:38:55Z</time>
</trkpt>
<trkpt lat="53.3475699" lon="18.4254899">
<ele>96</ele>
<time>2016-01-17T15:38:57Z</time>
</trkpt>
<trkpt lat="53.3476476" lon="18.4256871">
<ele>96</ele>
<time>2016-01-17T15:38:59Z</time>
</trkpt>
<trkpt lat="53.3477254" lon="18.4258984">
<ele>96</ele>
<time>2016-01-17T15:39:01Z</time>
</trkpt>
<trkpt lat="53.3478045" lon="18.4261144">
<ele>96</ele>
<time>2016-01-17T15:39:03Z</time>
</trkpt>
<trkpt lat="53.3478819" lon="18.4263353">
<ele>95</ele>
<time>2016-01-17T15:39:05Z</time>
</trkpt>
<trkpt lat="53.3479589" lon="18.4265600">
<ele>96</ele>
<time>2016-01-17T15:39:07Z</time>
</trkpt>
<trkpt lat="53.3480478" lon="18.4267802">
<ele>96</ele>
<time>2016-01-17T15:39:09Z</time>
</trkpt>
<trkpt lat="53.3481282" lon="18.4270025">
<ele>96</ele>
<time>2016-01-17T15:39:11Z</time>
</trkpt>
<trkpt lat="53.3481965" lon="18.4272007">
<ele>96</ele>
<time>2016-01-17T15:39:13Z</time>
</trkpt>
<trkpt lat="53.3482548" lon="18.4274154">
<ele>96</ele>
<time>2016-01-17T15:39:15Z</time>
</trkpt>
<trkpt lat="53.3482881" lon="18.4276725">
<ele>96</ele>
<time>2016-01-17T15:39:17Z</time>
</trkpt>
<trkpt lat="53.3482865" lon="18.4279588">
<ele>96</ele>
<time>2016-01-17T15:39:19Z</time>
</trkpt>
<trkpt lat="53.3482753" lon="18.4282456">
<ele>95</ele>
<time>2016-01-17T15:39:21Z</time>
</trkpt>
<trkpt lat="53.3482444" lon="18.4288846">
<ele>93</ele>
<time>2016-01-17T15:39:25Z</time>
</trkpt>
<trkpt lat="53.3482291" lon="18.4292309">
<ele>93</ele>
<time>2016-01-17T15:39:27Z</time>
</trkpt>
<trkpt lat="53.3482388" lon="18.4295963">
<ele>93</ele>
<time>2016-01-17T15:39:29Z</time>
</trkpt>
<trkpt lat="53.3482689" lon="18.4299535">
<ele>93</ele>
<time>2016-01-17T15:39:31Z</time>
</trkpt>
<trkpt lat="53.3483156" lon="18.4303105">
<ele>93</ele>
<time>2016-01-17T15:39:33Z</time>
</trkpt>
<trkpt lat="53.3483591" lon="18.4306716">
<ele>93</ele>
<time>2016-01-17T15:39:35Z</time>
</trkpt>
<trkpt lat="53.3483955" lon="18.4310490">
<ele>93</ele>
<time>2016-01-17T15:39:37Z</time>
</trkpt>
<trkpt lat="53.3484321" lon="18.4314322">
<ele>93</ele>
<time>2016-01-17T15:39:39Z</time>
</trkpt>
<trkpt lat="53.3484717" lon="18.4318412">
<ele>93</ele>
<time>2016-01-17T15:39:41Z</time>
</trkpt>
<trkpt lat="53.3485094" lon="18.4322386">
<ele>93</ele>
<time>2016-01-17T15:39:43Z</time>
</trkpt>
<trkpt lat="53.3485418" lon="18.4326388">
<ele>93</ele>
<time>2016-01-17T15:39:45Z</time>
</trkpt>
<trkpt lat="53.3485719" lon="18.4330503">
<ele>93</ele>
<time>2016-01-17T15:39:47Z</time>
</trkpt>
<trkpt lat="53.3486099" lon="18.4334589">
<ele>93</ele>
<time>2016-01-17T15:39:49Z</time>
</trkpt>
<trkpt lat="53.3486550" lon="18.4338569">
<ele>94</ele>
<time>2016-01-17T15:39:51Z</time>
</trkpt>
<trkpt lat="53.3487093" lon="18.4342485">
<ele>95</ele>
<time>2016-01-17T15:39:53Z</time>
</trkpt>
<trkpt lat="53.3487578" lon="18.4346421">
<ele>97</ele>
<time>2016-01-17T15:39:55Z</time>
</trkpt>
<trkpt lat="53.3488063" lon="18.4350259">
<ele>97</ele>
<time>2016-01-17T15:39:57Z</time>
</trkpt>
<trkpt lat="53.3488458" lon="18.4354039">
<ele>96</ele>
<time>2016-01-17T15:39:59Z</time>
</trkpt>
<trkpt lat="53.3488697" lon="18.4357621">
<ele>95</ele>
<time>2016-01-17T15:40:01Z</time>
</trkpt>
<trkpt lat="53.3488943" lon="18.4360623">
<ele>95</ele>
<time>2016-01-17T15:40:03Z</time>
</trkpt>
<trkpt lat="53.3489154" lon="18.4362544">
<ele>94</ele>
<time>2016-01-17T15:40:05Z</time>
</trkpt>
<trkpt lat="53.3489433" lon="18.4363514">
<ele>95</ele>
<time>2016-01-17T15:40:07Z</time>
</trkpt>
<trkpt lat="53.3490003" lon="18.4363955">
<ele>94</ele>
<time>2016-01-17T15:40:09Z</time>
</trkpt>
<trkpt lat="53.3490916" lon="18.4364369">
<ele>94</ele>
<time>2016-01-17T15:40:11Z</time>
</trkpt>
<trkpt lat="53.3492067" lon="18.4364940">
<ele>95</ele>
<time>2016-01-17T15:40:13Z</time>
</trkpt>
<trkpt lat="53.3493161" lon="18.4365601">
<ele>94</ele>
<time>2016-01-17T15:40:15Z</time>
</trkpt>
<trkpt lat="53.3494175" lon="18.4366230">
<ele>95</ele>
<time>2016-01-17T15:40:17Z</time>
</trkpt>
<trkpt lat="53.3494959" lon="18.4366938">
<ele>96</ele>
<time>2016-01-17T15:40:19Z</time>
</trkpt>
<trkpt lat="53.3495081" lon="18.4368324">
<ele>98</ele>
<time>2016-01-17T15:40:21Z</time>
</trkpt>
<trkpt lat="53.3494190" lon="18.4371992">
<ele>99</ele>
<time>2016-01-17T15:40:25Z</time>
</trkpt>
<trkpt lat="53.3493478" lon="18.4374356">
<ele>99</ele>
<time>2016-01-17T15:40:27Z</time>
</trkpt>
<trkpt lat="53.3492838" lon="18.4376768">
<ele>98</ele>
<time>2016-01-17T15:40:29Z</time>
</trkpt>
<trkpt lat="53.3492209" lon="18.4379279">
<ele>97</ele>
<time>2016-01-17T15:40:31Z</time>
</trkpt>
<trkpt lat="53.3491641" lon="18.4381645">
<ele>96</ele>
<time>2016-01-17T15:40:33Z</time>
</trkpt>
<trkpt lat="53.3491146" lon="18.4383903">
<ele>96</ele>
<time>2016-01-17T15:40:35Z</time>
</trkpt>
<trkpt lat="53.3490636" lon="18.4386284">
<ele>96</ele>
<time>2016-01-17T15:40:37Z</time>
</trkpt>
<trkpt lat="53.3490005" lon="18.4388968">
<ele>97</ele>
<time>2016-01-17T15:40:39Z</time>
</trkpt>
<trkpt lat="53.3489277" lon="18.4391792">
<ele>97</ele>
<time>2016-01-17T15:40:41Z</time>
</trkpt>
<trkpt lat="53.3488474" lon="18.4394778">
<ele>96</ele>
<time>2016-01-17T15:40:43Z</time>
</trkpt>
<trkpt lat="53.3487548" lon="18.4397942">
<ele>95</ele>
<time>2016-01-17T15:40:45Z</time>
</trkpt>
<trkpt lat="53.3486501" lon="18.4401275">
<ele>95</ele>
<time>2016-01-17T15:40:47Z</time>
</trkpt>
<trkpt lat="53.3485432" lon="18.4404754">
<ele>94</ele>
<time>2016-01-17T15:40:49Z</time>
</trkpt>
<trkpt lat="53.3484282" lon="18.4408250">
<ele>93</ele>
<time>2016-01-17T15:40:51Z</time>
</trkpt>
<trkpt lat="53.3482951" lon="18.4411879">
<ele>92</ele>
<time>2016-01-17T15:40:53Z</time>
</trkpt>
<trkpt lat="53.3481645" lon="18.4415565">
<ele>91</ele>
<time>2016-01-17T15:40:55Z</time>
</trkpt>
<trkpt lat="53.3480334" lon="18.4418960">
<ele>91</ele>
<time>2016-01-17T15:40:57Z</time>
</trkpt>
<trkpt lat="53.3478916" lon="18.4422056">
<ele>91</ele>
<time>2016-01-17T15:40:59Z</time>
</trkpt>
<trkpt lat="53.3477409" lon="18.4424597">
<ele>91</ele>
<time>2016-01-17T15:41:01Z</time>
</trkpt>
<trkpt lat="53.3476010" lon="18.4426993">
<ele>91</ele>
<time>2016-01-17T15:41:03Z</time>
</trkpt>
<trkpt lat="53.3474615" lon="18.4429712">
<ele>92</ele>
<time>2016-01-17T15:41:05Z</time>
</trkpt>
<trkpt lat="53.3473346" lon="18.4432767">
<ele>93</ele>
<time>2016-01-17T15:41:07Z</time>
</trkpt>
<trkpt lat="53.3472233" lon="18.4436003">
<ele>91</ele>
<time>2016-01-17T15:41:09Z</time>
</trkpt>
<trkpt lat="53.3471263" lon="18.4439291">
<ele>91</ele>
<time>2016-01-17T15:41:11Z</time>
</trkpt>
<trkpt lat="53.3470370" lon="18.4442408">
<ele>90</ele>
<time>2016-01-17T15:41:13Z</time>
</trkpt>
<trkpt lat="53.3469832" lon="18.4444907">
<ele>90</ele>
<time>2016-01-17T15:41:15Z</time>
</trkpt>
<trkpt lat="53.3471159" lon="18.4448516">
<ele>88</ele>
<time>2016-01-17T15:41:19Z</time>
</trkpt>
<trkpt lat="53.3472095" lon="18.4450292">
<ele>91</ele>
<time>2016-01-17T15:41:21Z</time>
</trkpt>
<trkpt lat="53.3472241" lon="18.4452150">
<ele>93</ele>
<time>2016-01-17T15:41:23Z</time>
</trkpt>
<trkpt lat="53.3472077" lon="18.4453681">
<ele>92</ele>
<time>2016-01-17T15:41:25Z</time>
</trkpt>
<trkpt lat="53.3472334" lon="18.4454829">
<ele>92</ele>
<time>2016-01-17T15:41:27Z</time>
</trkpt>
<trkpt lat="53.3473241" lon="18.4455765">
<ele>93</ele>
<time>2016-01-17T15:41:29Z</time>
</trkpt>
<trkpt lat="53.3474476" lon="18.4456349">
<ele>93</ele>
<time>2016-01-17T15:41:31Z</time>
</trkpt>
<trkpt lat="53.3475945" lon="18.4456856">
<ele>94</ele>
<time>2016-01-17T15:41:33Z</time>
</trkpt>
<trkpt lat="53.3477240" lon="18.4457117">
<ele>95</ele>
<time>2016-01-17T15:41:35Z</time>
</trkpt>
<trkpt lat="53.3478292" lon="18.4457162">
<ele>95</ele>
<time>2016-01-17T15:41:37Z</time>
</trkpt>
<trkpt lat="53.3479190" lon="18.4456852">
<ele>94</ele>
<time>2016-01-17T15:41:39Z</time>
</trkpt>
<trkpt lat="53.3479829" lon="18.4456141">
<ele>93</ele>
<time>2016-01-17T15:41:41Z</time>
</trkpt>
<trkpt lat="53.3480318" lon="18.4455477">
<ele>91</ele>
<time>2016-01-17T15:41:43Z</time>
</trkpt>
<trkpt lat="53.3480846" lon="18.4455301">
<ele>91</ele>
<time>2016-01-17T15:41:45Z</time>
</trkpt>
<trkpt lat="53.3481262" lon="18.4455397">
<ele>92</ele>
<time>2016-01-17T15:41:47Z</time>
</trkpt>
<trkpt lat="53.3481663" lon="18.4455484">
<ele>91</ele>
<time>2016-01-17T15:41:49Z</time>
</trkpt>
<trkpt lat="53.3482044" lon="18.4455574">
<ele>91</ele>
<time>2016-01-17T15:41:51Z</time>
</trkpt>
<trkpt lat="53.3482229" lon="18.4455423">
<ele>91</ele>
<time>2016-01-17T15:41:53Z</time>
</trkpt>
<trkpt lat="53.3482300" lon="18.4455190">
<ele>91</ele>
<time>2016-01-17T15:41:55Z</time>
</trkpt>
<trkpt lat="53.3482289" lon="18.4455085">
<ele>91</ele>
<time>2016-01-17T15:41:57Z</time>
</trkpt>
<trkpt lat="53.3482316" lon="18.4454939">
<ele>92</ele>
<time>2016-01-17T15:41:59Z</time>
</trkpt>
<trkpt lat="53.3482341" lon="18.4454940">
<ele>92</ele>
<time>2016-01-17T15:42:03Z</time>
</trkpt>
<trkpt lat="53.3482341" lon="18.4454940">
<ele>92</ele>
<time>2016-01-17T15:42:05Z</time>
</trkpt>
<trkpt lat="53.3482341" lon="18.4454940">
<ele>92</ele>
<time>2016-01-17T15:42:09Z</time>
</trkpt>
<trkpt lat="53.3482341" lon="18.4454940">
<ele>92</ele>
<time>2016-01-17T15:42:11Z</time>
</trkpt>
<trkpt lat="53.3482341" lon="18.4454940">
<ele>92</ele>
<time>2016-01-17T15:42:13Z</time>
</trkpt>
<trkpt lat="" lon="">
<ele></ele>
<time>2016-01-17TZ</time>
</trkpt>
</trkseg>
</trk>
<wpt lat="" lon="">
	<name></name>
	<desc></desc>
	<cmt></cmt>
	<photoid></photoid>
	<type></type>
</wpt>
</gpx>
